<?xml version="1.0" encoding="UTF-8" standalone="no" ?>
<gpx xmlns="http://www.topografix.com/GPX/1/1" xmlns:xsi="http://www.w3.org/2001/XMLSchema-instance" xsi:schemaLocation="http://www.topografix.com/GPX/1/1 http://www.topografix.com/GPX/1/1/gpx.xsd" version="1.1" creator="VisuGPX - https://www.visugpx.com">
  <metadata>
    <name>col de l\'Oeillon depuis Echalas</name>
    <desc><![CDATA[Le col est difficile, mais la descente ensuite sur la Terrasse sur Dorlay est très agréable.]]></desc>
  </metadata>
  <trk>
    <name><![CDATA[Sequence 3]]></name>
    <trkseg>
      <trkpt lat="45.46473" lon="4.67809">
        <ele>656</ele>
        <time>2015-07-27T15:09:12Z</time>
      </trkpt>
      <trkpt lat="45.46473" lon="4.67809">
        <ele>656</ele>
        <time>2015-07-27T15:09:15Z</time>
      </trkpt>
      <trkpt lat="45.46473" lon="4.67809">
        <ele>656</ele>
        <time>2015-07-27T15:09:18Z</time>
      </trkpt>
      <trkpt lat="45.46473" lon="4.67809">
        <ele>656</ele>
        <time>2015-07-27T15:09:21Z</time>
      </trkpt>
      <trkpt lat="45.46473" lon="4.67809">
        <ele>656</ele>
        <time>2015-07-27T15:09:24Z</time>
      </trkpt>
      <trkpt lat="45.46473" lon="4.67809">
        <ele>656</ele>
        <time>2015-07-27T15:09:28Z</time>
      </trkpt>
      <trkpt lat="45.46473" lon="4.67809">
        <ele>656</ele>
        <time>2015-07-27T15:09:30Z</time>
      </trkpt>
      <trkpt lat="45.46473" lon="4.67809">
        <ele>656</ele>
        <time>2015-07-27T15:09:33Z</time>
      </trkpt>
      <trkpt lat="45.46473" lon="4.67808">
        <ele>656</ele>
        <time>2015-07-27T15:09:36Z</time>
      </trkpt>
      <trkpt lat="45.46473" lon="4.67808">
        <ele>656</ele>
        <time>2015-07-27T15:09:40Z</time>
      </trkpt>
      <trkpt lat="45.46473" lon="4.67808">
        <ele>656</ele>
        <time>2015-07-27T15:09:42Z</time>
      </trkpt>
      <trkpt lat="45.46473" lon="4.67808">
        <ele>656</ele>
        <time>2015-07-27T15:09:45Z</time>
      </trkpt>
      <trkpt lat="45.46473" lon="4.67808">
        <ele>656</ele>
        <time>2015-07-27T15:09:48Z</time>
      </trkpt>
      <trkpt lat="45.46473" lon="4.67808">
        <ele>656</ele>
        <time>2015-07-27T15:09:51Z</time>
      </trkpt>
      <trkpt lat="45.46473" lon="4.67808">
        <ele>656</ele>
        <time>2015-07-27T15:09:54Z</time>
      </trkpt>
      <trkpt lat="45.46472" lon="4.6781">
        <ele>656</ele>
        <time>2015-07-27T15:09:58Z</time>
      </trkpt>
      <trkpt lat="45.46472" lon="4.67811">
        <ele>657</ele>
        <time>2015-07-27T15:10:02Z</time>
      </trkpt>
      <trkpt lat="45.46472" lon="4.67812">
        <ele>657</ele>
        <time>2015-07-27T15:10:05Z</time>
      </trkpt>
      <trkpt lat="45.46473" lon="4.67812">
        <ele>657</ele>
        <time>2015-07-27T15:10:06Z</time>
      </trkpt>
      <trkpt lat="45.46473" lon="4.67811">
        <ele>657</ele>
        <time>2015-07-27T15:10:09Z</time>
      </trkpt>
      <trkpt lat="45.46473" lon="4.67812">
        <ele>657</ele>
        <time>2015-07-27T15:10:13Z</time>
      </trkpt>
      <trkpt lat="45.46473" lon="4.67812">
        <ele>657</ele>
        <time>2015-07-27T15:10:15Z</time>
      </trkpt>
      <trkpt lat="45.46473" lon="4.67812">
        <ele>657</ele>
        <time>2015-07-27T15:10:18Z</time>
      </trkpt>
      <trkpt lat="45.46473" lon="4.67812">
        <ele>657</ele>
        <time>2015-07-27T15:10:21Z</time>
      </trkpt>
      <trkpt lat="45.46473" lon="4.67812">
        <ele>657</ele>
        <time>2015-07-27T15:10:24Z</time>
      </trkpt>
      <trkpt lat="45.46473" lon="4.67812">
        <ele>657</ele>
        <time>2015-07-27T15:10:27Z</time>
      </trkpt>
      <trkpt lat="45.46473" lon="4.67812">
        <ele>657</ele>
        <time>2015-07-27T15:10:30Z</time>
      </trkpt>
      <trkpt lat="45.46474" lon="4.67813">
        <ele>657</ele>
        <time>2015-07-27T15:10:33Z</time>
      </trkpt>
      <trkpt lat="45.46474" lon="4.67814">
        <ele>657</ele>
        <time>2015-07-27T15:10:38Z</time>
      </trkpt>
      <trkpt lat="45.46475" lon="4.67816">
        <ele>657</ele>
        <time>2015-07-27T15:10:41Z</time>
      </trkpt>
      <trkpt lat="45.46481" lon="4.67815">
        <ele>657</ele>
        <time>2015-07-27T15:10:46Z</time>
      </trkpt>
      <trkpt lat="45.46489" lon="4.67805">
        <ele>656</ele>
        <time>2015-07-27T15:10:51Z</time>
      </trkpt>
      <trkpt lat="45.46502" lon="4.6779">
        <ele>659</ele>
        <time>2015-07-27T15:10:56Z</time>
      </trkpt>
      <trkpt lat="45.46518" lon="4.67769">
        <ele>658</ele>
        <time>2015-07-27T15:11:01Z</time>
      </trkpt>
      <trkpt lat="45.46536" lon="4.67745">
        <ele>653</ele>
        <time>2015-07-27T15:11:06Z</time>
      </trkpt>
      <trkpt lat="45.46557" lon="4.67724">
        <ele>654</ele>
        <time>2015-07-27T15:11:11Z</time>
      </trkpt>
      <trkpt lat="45.46576" lon="4.67706">
        <ele>653</ele>
        <time>2015-07-27T15:11:16Z</time>
      </trkpt>
      <trkpt lat="45.46595" lon="4.6769">
        <ele>657</ele>
        <time>2015-07-27T15:11:21Z</time>
      </trkpt>
      <trkpt lat="45.46614" lon="4.67676">
        <ele>658</ele>
        <time>2015-07-27T15:11:26Z</time>
      </trkpt>
      <trkpt lat="45.46632" lon="4.67662">
        <ele>651</ele>
        <time>2015-07-27T15:11:31Z</time>
      </trkpt>
      <trkpt lat="45.46651" lon="4.67649">
        <ele>652</ele>
        <time>2015-07-27T15:11:36Z</time>
      </trkpt>
      <trkpt lat="45.4667" lon="4.67637">
        <ele>657</ele>
        <time>2015-07-27T15:11:41Z</time>
      </trkpt>
      <trkpt lat="45.4669" lon="4.67623">
        <ele>656</ele>
        <time>2015-07-27T15:11:46Z</time>
      </trkpt>
      <trkpt lat="45.46714" lon="4.67611">
        <ele>657</ele>
        <time>2015-07-27T15:11:51Z</time>
      </trkpt>
      <trkpt lat="45.46736" lon="4.67601">
        <ele>657</ele>
        <time>2015-07-27T15:11:56Z</time>
      </trkpt>
      <trkpt lat="45.46759" lon="4.67588">
        <ele>659</ele>
        <time>2015-07-27T15:12:01Z</time>
      </trkpt>
      <trkpt lat="45.46781" lon="4.67576">
        <ele>655</ele>
        <time>2015-07-27T15:12:06Z</time>
      </trkpt>
      <trkpt lat="45.46805" lon="4.67567">
        <ele>656</ele>
        <time>2015-07-27T15:12:11Z</time>
      </trkpt>
      <trkpt lat="45.46826" lon="4.67547">
        <ele>656</ele>
        <time>2015-07-27T15:12:16Z</time>
      </trkpt>
      <trkpt lat="45.46839" lon="4.67522">
        <ele>664</ele>
        <time>2015-07-27T15:12:21Z</time>
      </trkpt>
      <trkpt lat="45.46852" lon="4.67501">
        <ele>664</ele>
        <time>2015-07-27T15:12:26Z</time>
      </trkpt>
      <trkpt lat="45.46863" lon="4.67482">
        <ele>662</ele>
        <time>2015-07-27T15:12:31Z</time>
      </trkpt>
      <trkpt lat="45.46873" lon="4.67459">
        <ele>663</ele>
        <time>2015-07-27T15:12:36Z</time>
      </trkpt>
      <trkpt lat="45.4688" lon="4.67434">
        <ele>663</ele>
        <time>2015-07-27T15:12:41Z</time>
      </trkpt>
      <trkpt lat="45.46888" lon="4.67413">
        <ele>659</ele>
        <time>2015-07-27T15:12:46Z</time>
      </trkpt>
      <trkpt lat="45.46896" lon="4.67395">
        <ele>660</ele>
        <time>2015-07-27T15:12:51Z</time>
      </trkpt>
      <trkpt lat="45.46907" lon="4.67369">
        <ele>658</ele>
        <time>2015-07-27T15:12:58Z</time>
      </trkpt>
      <trkpt lat="45.46912" lon="4.67359">
        <ele>658</ele>
        <time>2015-07-27T15:13:01Z</time>
      </trkpt>
      <trkpt lat="45.46922" lon="4.6734">
        <ele>666</ele>
        <time>2015-07-27T15:13:07Z</time>
      </trkpt>
      <trkpt lat="45.46931" lon="4.67328">
        <ele>663</ele>
        <time>2015-07-27T15:13:11Z</time>
      </trkpt>
      <trkpt lat="45.46945" lon="4.67313">
        <ele>664</ele>
        <time>2015-07-27T15:13:16Z</time>
      </trkpt>
      <trkpt lat="45.4696" lon="4.67301">
        <ele>665</ele>
        <time>2015-07-27T15:13:21Z</time>
      </trkpt>
      <trkpt lat="45.46974" lon="4.67286">
        <ele>665</ele>
        <time>2015-07-27T15:13:26Z</time>
      </trkpt>
      <trkpt lat="45.46989" lon="4.67276">
        <ele>665</ele>
        <time>2015-07-27T15:13:31Z</time>
      </trkpt>
      <trkpt lat="45.47013" lon="4.67265">
        <ele>670</ele>
        <time>2015-07-27T15:13:38Z</time>
      </trkpt>
      <trkpt lat="45.47039" lon="4.67254">
        <ele>672</ele>
        <time>2015-07-27T15:13:45Z</time>
      </trkpt>
      <trkpt lat="45.47043" lon="4.67253">
        <ele>673</ele>
        <time>2015-07-27T15:13:46Z</time>
      </trkpt>
      <trkpt lat="45.47057" lon="4.67245">
        <ele>664</ele>
        <time>2015-07-27T15:13:50Z</time>
      </trkpt>
      <trkpt lat="45.47078" lon="4.67237">
        <ele>666</ele>
        <time>2015-07-27T15:13:55Z</time>
      </trkpt>
      <trkpt lat="45.471" lon="4.6723">
        <ele>666</ele>
        <time>2015-07-27T15:14:00Z</time>
      </trkpt>
      <trkpt lat="45.47127" lon="4.67224">
        <ele>665</ele>
        <time>2015-07-27T15:14:05Z</time>
      </trkpt>
      <trkpt lat="45.47157" lon="4.67219">
        <ele>665</ele>
        <time>2015-07-27T15:14:10Z</time>
      </trkpt>
      <trkpt lat="45.47194" lon="4.67211">
        <ele>663</ele>
        <time>2015-07-27T15:14:16Z</time>
      </trkpt>
      <trkpt lat="45.47246" lon="4.67197">
        <ele>661</ele>
        <time>2015-07-27T15:14:23Z</time>
      </trkpt>
      <trkpt lat="45.4726" lon="4.67194">
        <ele>659</ele>
        <time>2015-07-27T15:14:25Z</time>
      </trkpt>
      <trkpt lat="45.47296" lon="4.67191">
        <ele>659</ele>
        <time>2015-07-27T15:14:30Z</time>
      </trkpt>
      <trkpt lat="45.47334" lon="4.67227">
        <ele>655</ele>
        <time>2015-07-27T15:14:36Z</time>
      </trkpt>
      <trkpt lat="45.47344" lon="4.67288">
        <ele>652</ele>
        <time>2015-07-27T15:14:40Z</time>
      </trkpt>
      <trkpt lat="45.47353" lon="4.67375">
        <ele>648</ele>
        <time>2015-07-27T15:14:45Z</time>
      </trkpt>
      <trkpt lat="45.47361" lon="4.67468">
        <ele>644</ele>
        <time>2015-07-27T15:14:50Z</time>
      </trkpt>
      <trkpt lat="45.47334" lon="4.67576">
        <ele>641</ele>
        <time>2015-07-27T15:14:57Z</time>
      </trkpt>
      <trkpt lat="45.47305" lon="4.67606">
        <ele>644</ele>
        <time>2015-07-27T15:15:00Z</time>
      </trkpt>
      <trkpt lat="45.47267" lon="4.6766">
        <ele>645</ele>
        <time>2015-07-27T15:15:05Z</time>
      </trkpt>
      <trkpt lat="45.47289" lon="4.6776">
        <ele>635</ele>
        <time>2015-07-27T15:15:12Z</time>
      </trkpt>
      <trkpt lat="45.4732" lon="4.67785">
        <ele>633</ele>
        <time>2015-07-27T15:15:15Z</time>
      </trkpt>
      <trkpt lat="45.47365" lon="4.67821">
        <ele>624</ele>
        <time>2015-07-27T15:15:20Z</time>
      </trkpt>
      <trkpt lat="45.47443" lon="4.67897">
        <ele>615</ele>
        <time>2015-07-27T15:15:28Z</time>
      </trkpt>
      <trkpt lat="45.47454" lon="4.67928">
        <ele>614</ele>
        <time>2015-07-27T15:15:30Z</time>
      </trkpt>
      <trkpt lat="45.47492" lon="4.67984">
        <ele>607</ele>
        <time>2015-07-27T15:15:35Z</time>
      </trkpt>
      <trkpt lat="45.47558" lon="4.67988">
        <ele>598</ele>
        <time>2015-07-27T15:15:40Z</time>
      </trkpt>
      <trkpt lat="45.4762" lon="4.67967">
        <ele>591</ele>
        <time>2015-07-27T15:15:45Z</time>
      </trkpt>
      <trkpt lat="45.4765" lon="4.67935">
        <ele>589</ele>
        <time>2015-07-27T15:15:50Z</time>
      </trkpt>
      <trkpt lat="45.47661" lon="4.67942">
        <ele>589</ele>
        <time>2015-07-27T15:15:55Z</time>
      </trkpt>
      <trkpt lat="45.47661" lon="4.67977">
        <ele>588</ele>
        <time>2015-07-27T15:16:00Z</time>
      </trkpt>
      <trkpt lat="45.47653" lon="4.68023">
        <ele>585</ele>
        <time>2015-07-27T15:16:05Z</time>
      </trkpt>
      <trkpt lat="45.47628" lon="4.6807">
        <ele>584</ele>
        <time>2015-07-27T15:16:10Z</time>
      </trkpt>
      <trkpt lat="45.47596" lon="4.68108">
        <ele>582</ele>
        <time>2015-07-27T15:16:15Z</time>
      </trkpt>
      <trkpt lat="45.47601" lon="4.68152">
        <ele>581</ele>
        <time>2015-07-27T15:16:20Z</time>
      </trkpt>
      <trkpt lat="45.47612" lon="4.68193">
        <ele>581</ele>
        <time>2015-07-27T15:16:25Z</time>
      </trkpt>
      <trkpt lat="45.47617" lon="4.68225">
        <ele>582</ele>
        <time>2015-07-27T15:16:30Z</time>
      </trkpt>
      <trkpt lat="45.4762" lon="4.68247">
        <ele>582</ele>
        <time>2015-07-27T15:16:35Z</time>
      </trkpt>
      <trkpt lat="45.47625" lon="4.68264">
        <ele>587</ele>
        <time>2015-07-27T15:16:40Z</time>
      </trkpt>
      <trkpt lat="45.47627" lon="4.6828">
        <ele>587</ele>
        <time>2015-07-27T15:16:45Z</time>
      </trkpt>
      <trkpt lat="45.4763" lon="4.6831">
        <ele>589</ele>
        <time>2015-07-27T15:16:54Z</time>
      </trkpt>
      <trkpt lat="45.4763" lon="4.68312">
        <ele>589</ele>
        <time>2015-07-27T15:16:55Z</time>
      </trkpt>
      <trkpt lat="45.47631" lon="4.68324">
        <ele>589</ele>
        <time>2015-07-27T15:17:00Z</time>
      </trkpt>
      <trkpt lat="45.47632" lon="4.68338">
        <ele>594</ele>
        <time>2015-07-27T15:17:05Z</time>
      </trkpt>
      <trkpt lat="45.47631" lon="4.68352">
        <ele>595</ele>
        <time>2015-07-27T15:17:10Z</time>
      </trkpt>
      <trkpt lat="45.4763" lon="4.68364">
        <ele>595</ele>
        <time>2015-07-27T15:17:15Z</time>
      </trkpt>
      <trkpt lat="45.4763" lon="4.68377">
        <ele>596</ele>
        <time>2015-07-27T15:17:20Z</time>
      </trkpt>
      <trkpt lat="45.47631" lon="4.6839">
        <ele>596</ele>
        <time>2015-07-27T15:17:25Z</time>
      </trkpt>
      <trkpt lat="45.47629" lon="4.68402">
        <ele>597</ele>
        <time>2015-07-27T15:17:30Z</time>
      </trkpt>
      <trkpt lat="45.47625" lon="4.68416">
        <ele>597</ele>
        <time>2015-07-27T15:17:35Z</time>
      </trkpt>
      <trkpt lat="45.47623" lon="4.6843">
        <ele>599</ele>
        <time>2015-07-27T15:17:40Z</time>
      </trkpt>
      <trkpt lat="45.47621" lon="4.68444">
        <ele>599</ele>
        <time>2015-07-27T15:17:45Z</time>
      </trkpt>
      <trkpt lat="45.47616" lon="4.68458">
        <ele>599</ele>
        <time>2015-07-27T15:17:50Z</time>
      </trkpt>
      <trkpt lat="45.47613" lon="4.68473">
        <ele>599</ele>
        <time>2015-07-27T15:17:55Z</time>
      </trkpt>
      <trkpt lat="45.47605" lon="4.68497">
        <ele>600</ele>
        <time>2015-07-27T15:18:00Z</time>
      </trkpt>
      <trkpt lat="45.47591" lon="4.68538">
        <ele>596</ele>
        <time>2015-07-27T15:18:05Z</time>
      </trkpt>
      <trkpt lat="45.47567" lon="4.68594">
        <ele>596</ele>
        <time>2015-07-27T15:18:10Z</time>
      </trkpt>
      <trkpt lat="45.47552" lon="4.68649">
        <ele>595</ele>
        <time>2015-07-27T15:18:15Z</time>
      </trkpt>
      <trkpt lat="45.47571" lon="4.68683">
        <ele>595</ele>
        <time>2015-07-27T15:18:20Z</time>
      </trkpt>
      <trkpt lat="45.4759" lon="4.687">
        <ele>593</ele>
        <time>2015-07-27T15:18:25Z</time>
      </trkpt>
      <trkpt lat="45.47605" lon="4.68715">
        <ele>594</ele>
        <time>2015-07-27T15:18:30Z</time>
      </trkpt>
      <trkpt lat="45.47623" lon="4.68735">
        <ele>594</ele>
        <time>2015-07-27T15:18:36Z</time>
      </trkpt>
      <trkpt lat="45.47636" lon="4.68747">
        <ele>594</ele>
        <time>2015-07-27T15:18:40Z</time>
      </trkpt>
      <trkpt lat="45.47647" lon="4.68759">
        <ele>598</ele>
        <time>2015-07-27T15:18:44Z</time>
      </trkpt>
      <trkpt lat="45.47666" lon="4.68785">
        <ele>599</ele>
        <time>2015-07-27T15:18:51Z</time>
      </trkpt>
      <trkpt lat="45.47672" lon="4.68797">
        <ele>596</ele>
        <time>2015-07-27T15:18:54Z</time>
      </trkpt>
      <trkpt lat="45.4768" lon="4.68819">
        <ele>598</ele>
        <time>2015-07-27T15:18:59Z</time>
      </trkpt>
      <trkpt lat="45.47686" lon="4.68841">
        <ele>598</ele>
        <time>2015-07-27T15:19:04Z</time>
      </trkpt>
      <trkpt lat="45.4769" lon="4.68863">
        <ele>597</ele>
        <time>2015-07-27T15:19:09Z</time>
      </trkpt>
      <trkpt lat="45.47685" lon="4.68899">
        <ele>597</ele>
        <time>2015-07-27T15:19:14Z</time>
      </trkpt>
      <trkpt lat="45.47662" lon="4.68954">
        <ele>604</ele>
        <time>2015-07-27T15:19:19Z</time>
      </trkpt>
      <trkpt lat="45.47668" lon="4.69014">
        <ele>605</ele>
        <time>2015-07-27T15:19:24Z</time>
      </trkpt>
      <trkpt lat="45.47681" lon="4.69035">
        <ele>607</ele>
        <time>2015-07-27T15:19:29Z</time>
      </trkpt>
      <trkpt lat="45.47684" lon="4.69036">
        <ele>607</ele>
        <time>2015-07-27T15:19:34Z</time>
      </trkpt>
      <trkpt lat="45.47684" lon="4.69037">
        <ele>607</ele>
        <time>2015-07-27T15:19:39Z</time>
      </trkpt>
      <trkpt lat="45.47684" lon="4.69038">
        <ele>607</ele>
        <time>2015-07-27T15:19:43Z</time>
      </trkpt>
      <trkpt lat="45.47684" lon="4.69038">
        <ele>607</ele>
        <time>2015-07-27T15:19:47Z</time>
      </trkpt>
      <trkpt lat="45.47684" lon="4.69038">
        <ele>607</ele>
        <time>2015-07-27T15:19:48Z</time>
      </trkpt>
      <trkpt lat="45.47684" lon="4.69038">
        <ele>607</ele>
        <time>2015-07-27T15:19:51Z</time>
      </trkpt>
      <trkpt lat="45.47684" lon="4.69038">
        <ele>607</ele>
        <time>2015-07-27T15:19:54Z</time>
      </trkpt>
      <trkpt lat="45.47685" lon="4.69039">
        <ele>607</ele>
        <time>2015-07-27T15:19:57Z</time>
      </trkpt>
      <trkpt lat="45.47685" lon="4.69039">
        <ele>607</ele>
        <time>2015-07-27T15:20:00Z</time>
      </trkpt>
      <trkpt lat="45.47685" lon="4.69039">
        <ele>607</ele>
        <time>2015-07-27T15:20:05Z</time>
      </trkpt>
      <trkpt lat="45.47685" lon="4.69039">
        <ele>607</ele>
        <time>2015-07-27T15:20:08Z</time>
      </trkpt>
      <trkpt lat="45.47685" lon="4.6904">
        <ele>607</ele>
        <time>2015-07-27T15:20:11Z</time>
      </trkpt>
      <trkpt lat="45.47687" lon="4.69044">
        <ele>608</ele>
        <time>2015-07-27T15:20:15Z</time>
      </trkpt>
      <trkpt lat="45.47696" lon="4.69052">
        <ele>608</ele>
        <time>2015-07-27T15:20:21Z</time>
      </trkpt>
      <trkpt lat="45.47698" lon="4.69055">
        <ele>608</ele>
        <time>2015-07-27T15:20:23Z</time>
      </trkpt>
      <trkpt lat="45.47703" lon="4.69064">
        <ele>608</ele>
        <time>2015-07-27T15:20:27Z</time>
      </trkpt>
      <trkpt lat="45.47708" lon="4.69076">
        <ele>609</ele>
        <time>2015-07-27T15:20:31Z</time>
      </trkpt>
      <trkpt lat="45.47711" lon="4.6909">
        <ele>616</ele>
        <time>2015-07-27T15:20:36Z</time>
      </trkpt>
      <trkpt lat="45.47716" lon="4.69103">
        <ele>616</ele>
        <time>2015-07-27T15:20:41Z</time>
      </trkpt>
      <trkpt lat="45.47721" lon="4.6912">
        <ele>617</ele>
        <time>2015-07-27T15:20:46Z</time>
      </trkpt>
      <trkpt lat="45.47729" lon="4.69135">
        <ele>617</ele>
        <time>2015-07-27T15:20:51Z</time>
      </trkpt>
      <trkpt lat="45.47735" lon="4.69153">
        <ele>617</ele>
        <time>2015-07-27T15:20:56Z</time>
      </trkpt>
      <trkpt lat="45.4774" lon="4.69173">
        <ele>620</ele>
        <time>2015-07-27T15:21:01Z</time>
      </trkpt>
      <trkpt lat="45.47744" lon="4.69195">
        <ele>623</ele>
        <time>2015-07-27T15:21:06Z</time>
      </trkpt>
      <trkpt lat="45.47747" lon="4.69214">
        <ele>625</ele>
        <time>2015-07-27T15:21:10Z</time>
      </trkpt>
      <trkpt lat="45.47754" lon="4.69252">
        <ele>620</ele>
        <time>2015-07-27T15:21:17Z</time>
      </trkpt>
      <trkpt lat="45.47756" lon="4.69267">
        <ele>617</ele>
        <time>2015-07-27T15:21:20Z</time>
      </trkpt>
      <trkpt lat="45.47757" lon="4.69297">
        <ele>615</ele>
        <time>2015-07-27T15:21:27Z</time>
      </trkpt>
      <trkpt lat="45.47758" lon="4.69312">
        <ele>617</ele>
        <time>2015-07-27T15:21:30Z</time>
      </trkpt>
      <trkpt lat="45.47756" lon="4.69361">
        <ele>615</ele>
        <time>2015-07-27T15:21:38Z</time>
      </trkpt>
      <trkpt lat="45.47746" lon="4.69394">
        <ele>626</ele>
        <time>2015-07-27T15:21:44Z</time>
      </trkpt>
      <trkpt lat="45.47744" lon="4.69399">
        <ele>625</ele>
        <time>2015-07-27T15:21:45Z</time>
      </trkpt>
      <trkpt lat="45.47733" lon="4.69422">
        <ele>621</ele>
        <time>2015-07-27T15:21:50Z</time>
      </trkpt>
      <trkpt lat="45.47718" lon="4.69441">
        <ele>623</ele>
        <time>2015-07-27T15:21:55Z</time>
      </trkpt>
      <trkpt lat="45.47702" lon="4.69455">
        <ele>624</ele>
        <time>2015-07-27T15:22:00Z</time>
      </trkpt>
      <trkpt lat="45.47686" lon="4.69468">
        <ele>625</ele>
        <time>2015-07-27T15:22:05Z</time>
      </trkpt>
      <trkpt lat="45.47669" lon="4.69483">
        <ele>626</ele>
        <time>2015-07-27T15:22:10Z</time>
      </trkpt>
      <trkpt lat="45.47656" lon="4.6951">
        <ele>630</ele>
        <time>2015-07-27T15:22:15Z</time>
      </trkpt>
      <trkpt lat="45.47647" lon="4.69541">
        <ele>631</ele>
        <time>2015-07-27T15:22:20Z</time>
      </trkpt>
      <trkpt lat="45.47641" lon="4.69567">
        <ele>630</ele>
        <time>2015-07-27T15:22:25Z</time>
      </trkpt>
      <trkpt lat="45.47637" lon="4.69592">
        <ele>628</ele>
        <time>2015-07-27T15:22:30Z</time>
      </trkpt>
      <trkpt lat="45.47633" lon="4.69624">
        <ele>629</ele>
        <time>2015-07-27T15:22:36Z</time>
      </trkpt>
      <trkpt lat="45.47633" lon="4.69648">
        <ele>629</ele>
        <time>2015-07-27T15:22:40Z</time>
      </trkpt>
      <trkpt lat="45.47631" lon="4.69673">
        <ele>627</ele>
        <time>2015-07-27T15:22:45Z</time>
      </trkpt>
      <trkpt lat="45.47644" lon="4.69703">
        <ele>627</ele>
        <time>2015-07-27T15:22:50Z</time>
      </trkpt>
      <trkpt lat="45.47682" lon="4.69726">
        <ele>624</ele>
        <time>2015-07-27T15:22:58Z</time>
      </trkpt>
      <trkpt lat="45.47692" lon="4.69725">
        <ele>624</ele>
        <time>2015-07-27T15:23:00Z</time>
      </trkpt>
      <trkpt lat="45.47714" lon="4.6972">
        <ele>625</ele>
        <time>2015-07-27T15:23:04Z</time>
      </trkpt>
      <trkpt lat="45.47742" lon="4.69715">
        <ele>625</ele>
        <time>2015-07-27T15:23:09Z</time>
      </trkpt>
      <trkpt lat="45.47767" lon="4.69713">
        <ele>624</ele>
        <time>2015-07-27T15:23:14Z</time>
      </trkpt>
      <trkpt lat="45.47794" lon="4.69714">
        <ele>624</ele>
        <time>2015-07-27T15:23:19Z</time>
      </trkpt>
      <trkpt lat="45.47823" lon="4.69717">
        <ele>624</ele>
        <time>2015-07-27T15:23:24Z</time>
      </trkpt>
      <trkpt lat="45.47852" lon="4.69728">
        <ele>622</ele>
        <time>2015-07-27T15:23:29Z</time>
      </trkpt>
      <trkpt lat="45.47883" lon="4.6974">
        <ele>622</ele>
        <time>2015-07-27T15:23:34Z</time>
      </trkpt>
      <trkpt lat="45.47913" lon="4.69753">
        <ele>624</ele>
        <time>2015-07-27T15:23:39Z</time>
      </trkpt>
      <trkpt lat="45.47942" lon="4.69772">
        <ele>625</ele>
        <time>2015-07-27T15:23:44Z</time>
      </trkpt>
      <trkpt lat="45.47968" lon="4.69797">
        <ele>626</ele>
        <time>2015-07-27T15:23:49Z</time>
      </trkpt>
      <trkpt lat="45.47995" lon="4.69824">
        <ele>626</ele>
        <time>2015-07-27T15:23:54Z</time>
      </trkpt>
      <trkpt lat="45.48025" lon="4.69847">
        <ele>629</ele>
        <time>2015-07-27T15:23:59Z</time>
      </trkpt>
      <trkpt lat="45.48056" lon="4.69863">
        <ele>630</ele>
        <time>2015-07-27T15:24:04Z</time>
      </trkpt>
      <trkpt lat="45.48081" lon="4.69847">
        <ele>629</ele>
        <time>2015-07-27T15:24:09Z</time>
      </trkpt>
      <trkpt lat="45.4807" lon="4.69812">
        <ele>626</ele>
        <time>2015-07-27T15:24:14Z</time>
      </trkpt>
      <trkpt lat="45.48043" lon="4.69781">
        <ele>625</ele>
        <time>2015-07-27T15:24:19Z</time>
      </trkpt>
      <trkpt lat="45.48025" lon="4.69736">
        <ele>623</ele>
        <time>2015-07-27T15:24:24Z</time>
      </trkpt>
      <trkpt lat="45.48018" lon="4.69685">
        <ele>621</ele>
        <time>2015-07-27T15:24:29Z</time>
      </trkpt>
      <trkpt lat="45.48024" lon="4.69633">
        <ele>620</ele>
        <time>2015-07-27T15:24:34Z</time>
      </trkpt>
      <trkpt lat="45.48057" lon="4.69564">
        <ele>617</ele>
        <time>2015-07-27T15:24:42Z</time>
      </trkpt>
      <trkpt lat="45.48067" lon="4.6955">
        <ele>617</ele>
        <time>2015-07-27T15:24:44Z</time>
      </trkpt>
      <trkpt lat="45.48096" lon="4.69522">
        <ele>621</ele>
        <time>2015-07-27T15:24:49Z</time>
      </trkpt>
      <trkpt lat="45.48122" lon="4.69489">
        <ele>620</ele>
        <time>2015-07-27T15:24:54Z</time>
      </trkpt>
      <trkpt lat="45.48111" lon="4.69415">
        <ele>616</ele>
        <time>2015-07-27T15:25:02Z</time>
      </trkpt>
      <trkpt lat="45.4811" lon="4.69396">
        <ele>616</ele>
        <time>2015-07-27T15:25:04Z</time>
      </trkpt>
      <trkpt lat="45.48118" lon="4.69362">
        <ele>616</ele>
        <time>2015-07-27T15:25:08Z</time>
      </trkpt>
      <trkpt lat="45.48143" lon="4.69333">
        <ele>612</ele>
        <time>2015-07-27T15:25:13Z</time>
      </trkpt>
      <trkpt lat="45.48174" lon="4.6932">
        <ele>615</ele>
        <time>2015-07-27T15:25:18Z</time>
      </trkpt>
      <trkpt lat="45.48205" lon="4.69315">
        <ele>614</ele>
        <time>2015-07-27T15:25:23Z</time>
      </trkpt>
      <trkpt lat="45.48236" lon="4.69313">
        <ele>615</ele>
        <time>2015-07-27T15:25:28Z</time>
      </trkpt>
      <trkpt lat="45.48266" lon="4.6931">
        <ele>617</ele>
        <time>2015-07-27T15:25:33Z</time>
      </trkpt>
      <trkpt lat="45.48297" lon="4.6931">
        <ele>617</ele>
        <time>2015-07-27T15:25:38Z</time>
      </trkpt>
      <trkpt lat="45.48325" lon="4.69307">
        <ele>617</ele>
        <time>2015-07-27T15:25:43Z</time>
      </trkpt>
      <trkpt lat="45.48355" lon="4.69305">
        <ele>621</ele>
        <time>2015-07-27T15:25:48Z</time>
      </trkpt>
      <trkpt lat="45.48384" lon="4.69295">
        <ele>621</ele>
        <time>2015-07-27T15:25:53Z</time>
      </trkpt>
      <trkpt lat="45.4839" lon="4.69259">
        <ele>621</ele>
        <time>2015-07-27T15:25:58Z</time>
      </trkpt>
      <trkpt lat="45.48378" lon="4.69223">
        <ele>621</ele>
        <time>2015-07-27T15:26:03Z</time>
      </trkpt>
      <trkpt lat="45.48348" lon="4.69213">
        <ele>620</ele>
        <time>2015-07-27T15:26:08Z</time>
      </trkpt>
      <trkpt lat="45.48321" lon="4.6919">
        <ele>615</ele>
        <time>2015-07-27T15:26:13Z</time>
      </trkpt>
      <trkpt lat="45.48292" lon="4.69162">
        <ele>616</ele>
        <time>2015-07-27T15:26:18Z</time>
      </trkpt>
      <trkpt lat="45.48262" lon="4.69133">
        <ele>614</ele>
        <time>2015-07-27T15:26:23Z</time>
      </trkpt>
      <trkpt lat="45.48234" lon="4.69053">
        <ele>609</ele>
        <time>2015-07-27T15:26:31Z</time>
      </trkpt>
      <trkpt lat="45.48233" lon="4.69033">
        <ele>609</ele>
        <time>2015-07-27T15:26:33Z</time>
      </trkpt>
      <trkpt lat="45.48218" lon="4.68956">
        <ele>609</ele>
        <time>2015-07-27T15:26:40Z</time>
      </trkpt>
      <trkpt lat="45.48206" lon="4.68925">
        <ele>608</ele>
        <time>2015-07-27T15:26:43Z</time>
      </trkpt>
      <trkpt lat="45.48191" lon="4.68874">
        <ele>606</ele>
        <time>2015-07-27T15:26:48Z</time>
      </trkpt>
      <trkpt lat="45.48205" lon="4.68823">
        <ele>604</ele>
        <time>2015-07-27T15:26:53Z</time>
      </trkpt>
      <trkpt lat="45.48225" lon="4.68776">
        <ele>605</ele>
        <time>2015-07-27T15:26:58Z</time>
      </trkpt>
      <trkpt lat="45.48226" lon="4.68718">
        <ele>601</ele>
        <time>2015-07-27T15:27:03Z</time>
      </trkpt>
      <trkpt lat="45.48223" lon="4.68659">
        <ele>599</ele>
        <time>2015-07-27T15:27:08Z</time>
      </trkpt>
      <trkpt lat="45.48226" lon="4.68592">
        <ele>598</ele>
        <time>2015-07-27T15:27:14Z</time>
      </trkpt>
      <trkpt lat="45.48237" lon="4.68551">
        <ele>594</ele>
        <time>2015-07-27T15:27:18Z</time>
      </trkpt>
      <trkpt lat="45.4826" lon="4.68505">
        <ele>594</ele>
        <time>2015-07-27T15:27:23Z</time>
      </trkpt>
      <trkpt lat="45.48301" lon="4.68482">
        <ele>591</ele>
        <time>2015-07-27T15:27:28Z</time>
      </trkpt>
      <trkpt lat="45.48342" lon="4.6843">
        <ele>597</ele>
        <time>2015-07-27T15:27:36Z</time>
      </trkpt>
      <trkpt lat="45.48334" lon="4.68409">
        <ele>595</ele>
        <time>2015-07-27T15:27:38Z</time>
      </trkpt>
      <trkpt lat="45.48303" lon="4.68364">
        <ele>587</ele>
        <time>2015-07-27T15:27:43Z</time>
      </trkpt>
      <trkpt lat="45.48263" lon="4.68301">
        <ele>583</ele>
        <time>2015-07-27T15:27:50Z</time>
      </trkpt>
      <trkpt lat="45.48261" lon="4.68263">
        <ele>582</ele>
        <time>2015-07-27T15:27:53Z</time>
      </trkpt>
      <trkpt lat="45.48269" lon="4.68202">
        <ele>580</ele>
        <time>2015-07-27T15:27:58Z</time>
      </trkpt>
      <trkpt lat="45.48283" lon="4.68143">
        <ele>576</ele>
        <time>2015-07-27T15:28:03Z</time>
      </trkpt>
      <trkpt lat="45.48297" lon="4.68085">
        <ele>576</ele>
        <time>2015-07-27T15:28:08Z</time>
      </trkpt>
      <trkpt lat="45.48311" lon="4.68046">
        <ele>572</ele>
        <time>2015-07-27T15:28:12Z</time>
      </trkpt>
      <trkpt lat="45.48331" lon="4.68003">
        <ele>573</ele>
        <time>2015-07-27T15:28:17Z</time>
      </trkpt>
      <trkpt lat="45.48353" lon="4.67966">
        <ele>571</ele>
        <time>2015-07-27T15:28:22Z</time>
      </trkpt>
      <trkpt lat="45.48379" lon="4.67928">
        <ele>570</ele>
        <time>2015-07-27T15:28:27Z</time>
      </trkpt>
      <trkpt lat="45.48412" lon="4.67878">
        <ele>564</ele>
        <time>2015-07-27T15:28:33Z</time>
      </trkpt>
      <trkpt lat="45.48443" lon="4.67806">
        <ele>558</ele>
        <time>2015-07-27T15:28:40Z</time>
      </trkpt>
      <trkpt lat="45.48459" lon="4.67798">
        <ele>558</ele>
        <time>2015-07-27T15:28:42Z</time>
      </trkpt>
      <trkpt lat="45.48501" lon="4.67801">
        <ele>562</ele>
        <time>2015-07-27T15:28:47Z</time>
      </trkpt>
      <trkpt lat="45.48538" lon="4.67787">
        <ele>563</ele>
        <time>2015-07-27T15:28:52Z</time>
      </trkpt>
      <trkpt lat="45.4855" lon="4.67715">
        <ele>560</ele>
        <time>2015-07-27T15:28:59Z</time>
      </trkpt>
      <trkpt lat="45.48524" lon="4.67681">
        <ele>557</ele>
        <time>2015-07-27T15:29:04Z</time>
      </trkpt>
      <trkpt lat="45.48503" lon="4.67666">
        <ele>553</ele>
        <time>2015-07-27T15:29:07Z</time>
      </trkpt>
      <trkpt lat="45.48481" lon="4.67626">
        <ele>550</ele>
        <time>2015-07-27T15:29:12Z</time>
      </trkpt>
      <trkpt lat="45.48475" lon="4.6758">
        <ele>552</ele>
        <time>2015-07-27T15:29:17Z</time>
      </trkpt>
      <trkpt lat="45.48469" lon="4.67527">
        <ele>551</ele>
        <time>2015-07-27T15:29:23Z</time>
      </trkpt>
      <trkpt lat="45.48468" lon="4.67471">
        <ele>550</ele>
        <time>2015-07-27T15:29:29Z</time>
      </trkpt>
      <trkpt lat="45.48474" lon="4.67443">
        <ele>550</ele>
        <time>2015-07-27T15:29:32Z</time>
      </trkpt>
      <trkpt lat="45.48484" lon="4.67405">
        <ele>550</ele>
        <time>2015-07-27T15:29:37Z</time>
      </trkpt>
      <trkpt lat="45.48494" lon="4.67369">
        <ele>547</ele>
        <time>2015-07-27T15:29:42Z</time>
      </trkpt>
      <trkpt lat="45.48516" lon="4.67312">
        <ele>554</ele>
        <time>2015-07-27T15:29:51Z</time>
      </trkpt>
      <trkpt lat="45.48518" lon="4.67306">
        <ele>554</ele>
        <time>2015-07-27T15:29:52Z</time>
      </trkpt>
      <trkpt lat="45.4854" lon="4.67264">
        <ele>554</ele>
        <time>2015-07-27T15:29:59Z</time>
      </trkpt>
      <trkpt lat="45.4855" lon="4.67245">
        <ele>550</ele>
        <time>2015-07-27T15:30:02Z</time>
      </trkpt>
      <trkpt lat="45.48586" lon="4.67199">
        <ele>555</ele>
        <time>2015-07-27T15:30:11Z</time>
      </trkpt>
      <trkpt lat="45.48591" lon="4.67194">
        <ele>554</ele>
        <time>2015-07-27T15:30:12Z</time>
      </trkpt>
      <trkpt lat="45.48616" lon="4.67172">
        <ele>554</ele>
        <time>2015-07-27T15:30:17Z</time>
      </trkpt>
      <trkpt lat="45.48645" lon="4.67156">
        <ele>548</ele>
        <time>2015-07-27T15:30:22Z</time>
      </trkpt>
      <trkpt lat="45.48683" lon="4.67139">
        <ele>551</ele>
        <time>2015-07-27T15:30:28Z</time>
      </trkpt>
      <trkpt lat="45.48716" lon="4.67123">
        <ele>550</ele>
        <time>2015-07-27T15:30:33Z</time>
      </trkpt>
      <trkpt lat="45.48745" lon="4.67108">
        <ele>550</ele>
        <time>2015-07-27T15:30:38Z</time>
      </trkpt>
      <trkpt lat="45.48776" lon="4.6709">
        <ele>553</ele>
        <time>2015-07-27T15:30:43Z</time>
      </trkpt>
      <trkpt lat="45.48804" lon="4.67069">
        <ele>551</ele>
        <time>2015-07-27T15:30:48Z</time>
      </trkpt>
      <trkpt lat="45.48814" lon="4.67031">
        <ele>551</ele>
        <time>2015-07-27T15:30:53Z</time>
      </trkpt>
      <trkpt lat="45.48772" lon="4.66994">
        <ele>551</ele>
        <time>2015-07-27T15:31:01Z</time>
      </trkpt>
      <trkpt lat="45.48756" lon="4.66982">
        <ele>551</ele>
        <time>2015-07-27T15:31:04Z</time>
      </trkpt>
      <trkpt lat="45.48737" lon="4.66966">
        <ele>546</ele>
        <time>2015-07-27T15:31:08Z</time>
      </trkpt>
      <trkpt lat="45.48714" lon="4.66937">
        <ele>546</ele>
        <time>2015-07-27T15:31:13Z</time>
      </trkpt>
      <trkpt lat="45.487" lon="4.66898">
        <ele>548</ele>
        <time>2015-07-27T15:31:18Z</time>
      </trkpt>
      <trkpt lat="45.48696" lon="4.66824">
        <ele>547</ele>
        <time>2015-07-27T15:31:26Z</time>
      </trkpt>
      <trkpt lat="45.48703" lon="4.6677">
        <ele>546</ele>
        <time>2015-07-27T15:31:32Z</time>
      </trkpt>
      <trkpt lat="45.48705" lon="4.66761">
        <ele>546</ele>
        <time>2015-07-27T15:31:33Z</time>
      </trkpt>
      <trkpt lat="45.48715" lon="4.66714">
        <ele>544</ele>
        <time>2015-07-27T15:31:38Z</time>
      </trkpt>
      <trkpt lat="45.48725" lon="4.66669">
        <ele>544</ele>
        <time>2015-07-27T15:31:43Z</time>
      </trkpt>
      <trkpt lat="45.48738" lon="4.66631">
        <ele>540</ele>
        <time>2015-07-27T15:31:48Z</time>
      </trkpt>
      <trkpt lat="45.48758" lon="4.666">
        <ele>545</ele>
        <time>2015-07-27T15:31:53Z</time>
      </trkpt>
      <trkpt lat="45.48785" lon="4.66577">
        <ele>539</ele>
        <time>2015-07-27T15:31:58Z</time>
      </trkpt>
      <trkpt lat="45.48823" lon="4.66557">
        <ele>540</ele>
        <time>2015-07-27T15:32:04Z</time>
      </trkpt>
      <trkpt lat="45.48849" lon="4.6655">
        <ele>541</ele>
        <time>2015-07-27T15:32:08Z</time>
      </trkpt>
      <trkpt lat="45.48883" lon="4.66547">
        <ele>541</ele>
        <time>2015-07-27T15:32:13Z</time>
      </trkpt>
      <trkpt lat="45.48929" lon="4.66528">
        <ele>541</ele>
        <time>2015-07-27T15:32:20Z</time>
      </trkpt>
      <trkpt lat="45.48946" lon="4.66509">
        <ele>541</ele>
        <time>2015-07-27T15:32:23Z</time>
      </trkpt>
      <trkpt lat="45.48974" lon="4.66482">
        <ele>534</ele>
        <time>2015-07-27T15:32:28Z</time>
      </trkpt>
      <trkpt lat="45.49007" lon="4.66465">
        <ele>535</ele>
        <time>2015-07-27T15:32:33Z</time>
      </trkpt>
      <trkpt lat="45.49045" lon="4.66456">
        <ele>535</ele>
        <time>2015-07-27T15:32:38Z</time>
      </trkpt>
      <trkpt lat="45.49084" lon="4.66446">
        <ele>533</ele>
        <time>2015-07-27T15:32:43Z</time>
      </trkpt>
      <trkpt lat="45.49153" lon="4.66442">
        <ele>531</ele>
        <time>2015-07-27T15:32:51Z</time>
      </trkpt>
      <trkpt lat="45.4918" lon="4.66436">
        <ele>529</ele>
        <time>2015-07-27T15:32:54Z</time>
      </trkpt>
      <trkpt lat="45.49218" lon="4.66423">
        <ele>528</ele>
        <time>2015-07-27T15:32:58Z</time>
      </trkpt>
      <trkpt lat="45.49255" lon="4.66419">
        <ele>526</ele>
        <time>2015-07-27T15:33:03Z</time>
      </trkpt>
      <trkpt lat="45.49271" lon="4.66465">
        <ele>525</ele>
        <time>2015-07-27T15:33:08Z</time>
      </trkpt>
      <trkpt lat="45.49286" lon="4.66524">
        <ele>524</ele>
        <time>2015-07-27T15:33:13Z</time>
      </trkpt>
      <trkpt lat="45.49304" lon="4.66589">
        <ele>524</ele>
        <time>2015-07-27T15:33:18Z</time>
      </trkpt>
      <trkpt lat="45.49321" lon="4.66657">
        <ele>523</ele>
        <time>2015-07-27T15:33:23Z</time>
      </trkpt>
      <trkpt lat="45.49342" lon="4.66718">
        <ele>517</ele>
        <time>2015-07-27T15:33:28Z</time>
      </trkpt>
      <trkpt lat="45.49385" lon="4.6675">
        <ele>512</ele>
        <time>2015-07-27T15:33:33Z</time>
      </trkpt>
      <trkpt lat="45.49414" lon="4.66795">
        <ele>515</ele>
        <time>2015-07-27T15:33:37Z</time>
      </trkpt>
      <trkpt lat="45.4941" lon="4.66858">
        <ele>517</ele>
        <time>2015-07-27T15:33:42Z</time>
      </trkpt>
      <trkpt lat="45.49384" lon="4.66903">
        <ele>520</ele>
        <time>2015-07-27T15:33:47Z</time>
      </trkpt>
      <trkpt lat="45.49408" lon="4.6695">
        <ele>520</ele>
        <time>2015-07-27T15:33:52Z</time>
      </trkpt>
      <trkpt lat="45.49438" lon="4.66982">
        <ele>509</ele>
        <time>2015-07-27T15:33:57Z</time>
      </trkpt>
      <trkpt lat="45.49479" lon="4.67001">
        <ele>510</ele>
        <time>2015-07-27T15:34:02Z</time>
      </trkpt>
      <trkpt lat="45.49506" lon="4.67056">
        <ele>502</ele>
        <time>2015-07-27T15:34:07Z</time>
      </trkpt>
      <trkpt lat="45.49534" lon="4.67112">
        <ele>507</ele>
        <time>2015-07-27T15:34:12Z</time>
      </trkpt>
      <trkpt lat="45.49571" lon="4.67157">
        <ele>503</ele>
        <time>2015-07-27T15:34:17Z</time>
      </trkpt>
      <trkpt lat="45.49613" lon="4.67193">
        <ele>496</ele>
        <time>2015-07-27T15:34:22Z</time>
      </trkpt>
      <trkpt lat="45.49615" lon="4.6726">
        <ele>502</ele>
        <time>2015-07-27T15:34:27Z</time>
      </trkpt>
      <trkpt lat="45.49599" lon="4.67316">
        <ele>505</ele>
        <time>2015-07-27T15:34:32Z</time>
      </trkpt>
      <trkpt lat="45.49628" lon="4.67356">
        <ele>501</ele>
        <time>2015-07-27T15:34:37Z</time>
      </trkpt>
      <trkpt lat="45.4966" lon="4.67385">
        <ele>499</ele>
        <time>2015-07-27T15:34:42Z</time>
      </trkpt>
      <trkpt lat="45.49689" lon="4.67429">
        <ele>488</ele>
        <time>2015-07-27T15:34:47Z</time>
      </trkpt>
      <trkpt lat="45.49716" lon="4.67475">
        <ele>485</ele>
        <time>2015-07-27T15:34:52Z</time>
      </trkpt>
      <trkpt lat="45.49704" lon="4.6753">
        <ele>484</ele>
        <time>2015-07-27T15:34:57Z</time>
      </trkpt>
      <trkpt lat="45.49669" lon="4.67568">
        <ele>486</ele>
        <time>2015-07-27T15:35:02Z</time>
      </trkpt>
      <trkpt lat="45.49644" lon="4.67612">
        <ele>497</ele>
        <time>2015-07-27T15:35:07Z</time>
      </trkpt>
      <trkpt lat="45.49674" lon="4.67637">
        <ele>484</ele>
        <time>2015-07-27T15:35:12Z</time>
      </trkpt>
      <trkpt lat="45.49717" lon="4.67648">
        <ele>480</ele>
        <time>2015-07-27T15:35:17Z</time>
      </trkpt>
      <trkpt lat="45.4976" lon="4.67676">
        <ele>473</ele>
        <time>2015-07-27T15:35:22Z</time>
      </trkpt>
      <trkpt lat="45.49796" lon="4.67725">
        <ele>471</ele>
        <time>2015-07-27T15:35:27Z</time>
      </trkpt>
      <trkpt lat="45.49826" lon="4.67782">
        <ele>474</ele>
        <time>2015-07-27T15:35:32Z</time>
      </trkpt>
      <trkpt lat="45.49868" lon="4.67819">
        <ele>468</ele>
        <time>2015-07-27T15:35:37Z</time>
      </trkpt>
      <trkpt lat="45.49904" lon="4.67848">
        <ele>471</ele>
        <time>2015-07-27T15:35:42Z</time>
      </trkpt>
      <trkpt lat="45.49926" lon="4.67901">
        <ele>467</ele>
        <time>2015-07-27T15:35:47Z</time>
      </trkpt>
      <trkpt lat="45.49915" lon="4.67963">
        <ele>471</ele>
        <time>2015-07-27T15:35:52Z</time>
      </trkpt>
      <trkpt lat="45.49902" lon="4.6801">
        <ele>467</ele>
        <time>2015-07-27T15:35:57Z</time>
      </trkpt>
      <trkpt lat="45.49951" lon="4.68027">
        <ele>457</ele>
        <time>2015-07-27T15:36:03Z</time>
      </trkpt>
      <trkpt lat="45.4999" lon="4.68037">
        <ele>455</ele>
        <time>2015-07-27T15:36:07Z</time>
      </trkpt>
      <trkpt lat="45.50007" lon="4.68089">
        <ele>449</ele>
        <time>2015-07-27T15:36:12Z</time>
      </trkpt>
      <trkpt lat="45.49976" lon="4.68138">
        <ele>455</ele>
        <time>2015-07-27T15:36:17Z</time>
      </trkpt>
      <trkpt lat="45.49971" lon="4.68178">
        <ele>458</ele>
        <time>2015-07-27T15:36:22Z</time>
      </trkpt>
      <trkpt lat="45.50013" lon="4.6819">
        <ele>452</ele>
        <time>2015-07-27T15:36:28Z</time>
      </trkpt>
      <trkpt lat="45.50073" lon="4.682">
        <ele>450</ele>
        <time>2015-07-27T15:36:36Z</time>
      </trkpt>
      <trkpt lat="45.50079" lon="4.68204">
        <ele>450</ele>
        <time>2015-07-27T15:36:37Z</time>
      </trkpt>
      <trkpt lat="45.5011" lon="4.68231">
        <ele>446</ele>
        <time>2015-07-27T15:36:42Z</time>
      </trkpt>
      <trkpt lat="45.50134" lon="4.68262">
        <ele>449</ele>
        <time>2015-07-27T15:36:47Z</time>
      </trkpt>
      <trkpt lat="45.50156" lon="4.68306">
        <ele>449</ele>
        <time>2015-07-27T15:36:52Z</time>
      </trkpt>
      <trkpt lat="45.50197" lon="4.68377">
        <ele>448</ele>
        <time>2015-07-27T15:37:01Z</time>
      </trkpt>
      <trkpt lat="45.50204" lon="4.68381">
        <ele>448</ele>
        <time>2015-07-27T15:37:02Z</time>
      </trkpt>
      <trkpt lat="45.50234" lon="4.68399">
        <ele>448</ele>
        <time>2015-07-27T15:37:07Z</time>
      </trkpt>
      <trkpt lat="45.50262" lon="4.68424">
        <ele>450</ele>
        <time>2015-07-27T15:37:12Z</time>
      </trkpt>
      <trkpt lat="45.50285" lon="4.68445">
        <ele>450</ele>
        <time>2015-07-27T15:37:17Z</time>
      </trkpt>
      <trkpt lat="45.50307" lon="4.68465">
        <ele>451</ele>
        <time>2015-07-27T15:37:22Z</time>
      </trkpt>
      <trkpt lat="45.50323" lon="4.68492">
        <ele>452</ele>
        <time>2015-07-27T15:37:27Z</time>
      </trkpt>
      <trkpt lat="45.50331" lon="4.68519">
        <ele>455</ele>
        <time>2015-07-27T15:37:32Z</time>
      </trkpt>
      <trkpt lat="45.50336" lon="4.68558">
        <ele>452</ele>
        <time>2015-07-27T15:37:39Z</time>
      </trkpt>
      <trkpt lat="45.50336" lon="4.68575">
        <ele>454</ele>
        <time>2015-07-27T15:37:42Z</time>
      </trkpt>
      <trkpt lat="45.50338" lon="4.68603">
        <ele>455</ele>
        <time>2015-07-27T15:37:47Z</time>
      </trkpt>
      <trkpt lat="45.5034" lon="4.6863">
        <ele>456</ele>
        <time>2015-07-27T15:37:52Z</time>
      </trkpt>
      <trkpt lat="45.50344" lon="4.68658">
        <ele>457</ele>
        <time>2015-07-27T15:37:57Z</time>
      </trkpt>
      <trkpt lat="45.50354" lon="4.68685">
        <ele>459</ele>
        <time>2015-07-27T15:38:02Z</time>
      </trkpt>
      <trkpt lat="45.50368" lon="4.68712">
        <ele>460</ele>
        <time>2015-07-27T15:38:07Z</time>
      </trkpt>
      <trkpt lat="45.50381" lon="4.68739">
        <ele>460</ele>
        <time>2015-07-27T15:38:12Z</time>
      </trkpt>
      <trkpt lat="45.5039" lon="4.68775">
        <ele>463</ele>
        <time>2015-07-27T15:38:18Z</time>
      </trkpt>
      <trkpt lat="45.50396" lon="4.68796">
        <ele>464</ele>
        <time>2015-07-27T15:38:22Z</time>
      </trkpt>
      <trkpt lat="45.50402" lon="4.68819">
        <ele>464</ele>
        <time>2015-07-27T15:38:27Z</time>
      </trkpt>
      <trkpt lat="45.50419" lon="4.68836">
        <ele>463</ele>
        <time>2015-07-27T15:38:35Z</time>
      </trkpt>
      <trkpt lat="45.5043" lon="4.68834">
        <ele>462</ele>
        <time>2015-07-27T15:38:37Z</time>
      </trkpt>
      <trkpt lat="45.50456" lon="4.68831">
        <ele>459</ele>
        <time>2015-07-27T15:38:42Z</time>
      </trkpt>
      <trkpt lat="45.50468" lon="4.68854">
        <ele>460</ele>
        <time>2015-07-27T15:38:47Z</time>
      </trkpt>
      <trkpt lat="45.50477" lon="4.68878">
        <ele>460</ele>
        <time>2015-07-27T15:38:52Z</time>
      </trkpt>
      <trkpt lat="45.50489" lon="4.68902">
        <ele>460</ele>
        <time>2015-07-27T15:38:57Z</time>
      </trkpt>
      <trkpt lat="45.50506" lon="4.68907">
        <ele>457</ele>
        <time>2015-07-27T15:39:02Z</time>
      </trkpt>
      <trkpt lat="45.50512" lon="4.68945">
        <ele>454</ele>
        <time>2015-07-27T15:39:07Z</time>
      </trkpt>
      <trkpt lat="45.50515" lon="4.69006">
        <ele>451</ele>
        <time>2015-07-27T15:39:14Z</time>
      </trkpt>
      <trkpt lat="45.50511" lon="4.69041">
        <ele>449</ele>
        <time>2015-07-27T15:39:17Z</time>
      </trkpt>
      <trkpt lat="45.50507" lon="4.69101">
        <ele>445</ele>
        <time>2015-07-27T15:39:22Z</time>
      </trkpt>
      <trkpt lat="45.50474" lon="4.69109">
        <ele>443</ele>
        <time>2015-07-27T15:39:27Z</time>
      </trkpt>
      <trkpt lat="45.50436" lon="4.69094">
        <ele>444</ele>
        <time>2015-07-27T15:39:32Z</time>
      </trkpt>
      <trkpt lat="45.5042" lon="4.69145">
        <ele>440</ele>
        <time>2015-07-27T15:39:37Z</time>
      </trkpt>
      <trkpt lat="45.5039" lon="4.69196">
        <ele>434</ele>
        <time>2015-07-27T15:39:42Z</time>
      </trkpt>
      <trkpt lat="45.50343" lon="4.69233">
        <ele>432</ele>
        <time>2015-07-27T15:39:47Z</time>
      </trkpt>
      <trkpt lat="45.50303" lon="4.69269">
        <ele>435</ele>
        <time>2015-07-27T15:39:52Z</time>
      </trkpt>
      <trkpt lat="45.50322" lon="4.69306">
        <ele>434</ele>
        <time>2015-07-27T15:39:57Z</time>
      </trkpt>
      <trkpt lat="45.50358" lon="4.69317">
        <ele>428</ele>
        <time>2015-07-27T15:40:02Z</time>
      </trkpt>
      <trkpt lat="45.50391" lon="4.6933">
        <ele>427</ele>
        <time>2015-07-27T15:40:07Z</time>
      </trkpt>
      <trkpt lat="45.50422" lon="4.69341">
        <ele>426</ele>
        <time>2015-07-27T15:40:12Z</time>
      </trkpt>
      <trkpt lat="45.50453" lon="4.69355">
        <ele>426</ele>
        <time>2015-07-27T15:40:17Z</time>
      </trkpt>
      <trkpt lat="45.5048" lon="4.69374">
        <ele>426</ele>
        <time>2015-07-27T15:40:22Z</time>
      </trkpt>
      <trkpt lat="45.50512" lon="4.69405">
        <ele>423</ele>
        <time>2015-07-27T15:40:28Z</time>
      </trkpt>
      <trkpt lat="45.50538" lon="4.69427">
        <ele>425</ele>
        <time>2015-07-27T15:40:33Z</time>
      </trkpt>
      <trkpt lat="45.50555" lon="4.69445">
        <ele>424</ele>
        <time>2015-07-27T15:40:36Z</time>
      </trkpt>
      <trkpt lat="45.50572" lon="4.69493">
        <ele>423</ele>
        <time>2015-07-27T15:40:41Z</time>
      </trkpt>
      <trkpt lat="45.50572" lon="4.69555">
        <ele>427</ele>
        <time>2015-07-27T15:40:46Z</time>
      </trkpt>
      <trkpt lat="45.5056" lon="4.69623">
        <ele>427</ele>
        <time>2015-07-27T15:40:51Z</time>
      </trkpt>
      <trkpt lat="45.50548" lon="4.69692">
        <ele>424</ele>
        <time>2015-07-27T15:40:56Z</time>
      </trkpt>
      <trkpt lat="45.50577" lon="4.69739">
        <ele>422</ele>
        <time>2015-07-27T15:41:01Z</time>
      </trkpt>
      <trkpt lat="45.50611" lon="4.69694">
        <ele>424</ele>
        <time>2015-07-27T15:41:07Z</time>
      </trkpt>
      <trkpt lat="45.50627" lon="4.69666">
        <ele>423</ele>
        <time>2015-07-27T15:41:11Z</time>
      </trkpt>
      <trkpt lat="45.50642" lon="4.69633">
        <ele>424</ele>
        <time>2015-07-27T15:41:16Z</time>
      </trkpt>
      <trkpt lat="45.50655" lon="4.69604">
        <ele>424</ele>
        <time>2015-07-27T15:41:21Z</time>
      </trkpt>
      <trkpt lat="45.50663" lon="4.69581">
        <ele>423</ele>
        <time>2015-07-27T15:41:26Z</time>
      </trkpt>
      <trkpt lat="45.50671" lon="4.69559">
        <ele>424</ele>
        <time>2015-07-27T15:41:31Z</time>
      </trkpt>
      <trkpt lat="45.5068" lon="4.69539">
        <ele>423</ele>
        <time>2015-07-27T15:41:36Z</time>
      </trkpt>
      <trkpt lat="45.50689" lon="4.69519">
        <ele>422</ele>
        <time>2015-07-27T15:41:41Z</time>
      </trkpt>
      <trkpt lat="45.50699" lon="4.69499">
        <ele>418</ele>
        <time>2015-07-27T15:41:46Z</time>
      </trkpt>
      <trkpt lat="45.50713" lon="4.69485">
        <ele>419</ele>
        <time>2015-07-27T15:41:51Z</time>
      </trkpt>
      <trkpt lat="45.50728" lon="4.69491">
        <ele>421</ele>
        <time>2015-07-27T15:41:56Z</time>
      </trkpt>
      <trkpt lat="45.50736" lon="4.69508">
        <ele>426</ele>
        <time>2015-07-27T15:42:01Z</time>
      </trkpt>
      <trkpt lat="45.5074" lon="4.69528">
        <ele>426</ele>
        <time>2015-07-27T15:42:06Z</time>
      </trkpt>
      <trkpt lat="45.50744" lon="4.6955">
        <ele>427</ele>
        <time>2015-07-27T15:42:11Z</time>
      </trkpt>
      <trkpt lat="45.50748" lon="4.69571">
        <ele>429</ele>
        <time>2015-07-27T15:42:16Z</time>
      </trkpt>
      <trkpt lat="45.50752" lon="4.69594">
        <ele>432</ele>
        <time>2015-07-27T15:42:21Z</time>
      </trkpt>
      <trkpt lat="45.50756" lon="4.69614">
        <ele>432</ele>
        <time>2015-07-27T15:42:26Z</time>
      </trkpt>
      <trkpt lat="45.50762" lon="4.69637">
        <ele>433</ele>
        <time>2015-07-27T15:42:31Z</time>
      </trkpt>
      <trkpt lat="45.5077" lon="4.69659">
        <ele>433</ele>
        <time>2015-07-27T15:42:36Z</time>
      </trkpt>
      <trkpt lat="45.50779" lon="4.6968">
        <ele>435</ele>
        <time>2015-07-27T15:42:41Z</time>
      </trkpt>
      <trkpt lat="45.50787" lon="4.69702">
        <ele>435</ele>
        <time>2015-07-27T15:42:46Z</time>
      </trkpt>
      <trkpt lat="45.50797" lon="4.69723">
        <ele>435</ele>
        <time>2015-07-27T15:42:51Z</time>
      </trkpt>
      <trkpt lat="45.50806" lon="4.69745">
        <ele>435</ele>
        <time>2015-07-27T15:42:56Z</time>
      </trkpt>
      <trkpt lat="45.50815" lon="4.69768">
        <ele>438</ele>
        <time>2015-07-27T15:43:01Z</time>
      </trkpt>
      <trkpt lat="45.50828" lon="4.69794">
        <ele>439</ele>
        <time>2015-07-27T15:43:06Z</time>
      </trkpt>
      <trkpt lat="45.50844" lon="4.69825">
        <ele>438</ele>
        <time>2015-07-27T15:43:11Z</time>
      </trkpt>
      <trkpt lat="45.50858" lon="4.69853">
        <ele>437</ele>
        <time>2015-07-27T15:43:15Z</time>
      </trkpt>
      <trkpt lat="45.50878" lon="4.69889">
        <ele>436</ele>
        <time>2015-07-27T15:43:20Z</time>
      </trkpt>
      <trkpt lat="45.50901" lon="4.69935">
        <ele>435</ele>
        <time>2015-07-27T15:43:25Z</time>
      </trkpt>
      <trkpt lat="45.50918" lon="4.69999">
        <ele>430</ele>
        <time>2015-07-27T15:43:30Z</time>
      </trkpt>
      <trkpt lat="45.50945" lon="4.70053">
        <ele>429</ele>
        <time>2015-07-27T15:43:35Z</time>
      </trkpt>
      <trkpt lat="45.50978" lon="4.70092">
        <ele>431</ele>
        <time>2015-07-27T15:43:40Z</time>
      </trkpt>
      <trkpt lat="45.51013" lon="4.70123">
        <ele>427</ele>
        <time>2015-07-27T15:43:45Z</time>
      </trkpt>
      <trkpt lat="45.51053" lon="4.70124">
        <ele>426</ele>
        <time>2015-07-27T15:43:50Z</time>
      </trkpt>
      <trkpt lat="45.51089" lon="4.70127">
        <ele>422</ele>
        <time>2015-07-27T15:43:54Z</time>
      </trkpt>
      <trkpt lat="45.51137" lon="4.70136">
        <ele>421</ele>
        <time>2015-07-27T15:43:59Z</time>
      </trkpt>
      <trkpt lat="45.51192" lon="4.70163">
        <ele>418</ele>
        <time>2015-07-27T15:44:05Z</time>
      </trkpt>
      <trkpt lat="45.51221" lon="4.70192">
        <ele>420</ele>
        <time>2015-07-27T15:44:09Z</time>
      </trkpt>
      <trkpt lat="45.51251" lon="4.70228">
        <ele>418</ele>
        <time>2015-07-27T15:44:14Z</time>
      </trkpt>
      <trkpt lat="45.51309" lon="4.70299">
        <ele>420</ele>
        <time>2015-07-27T15:44:23Z</time>
      </trkpt>
      <trkpt lat="45.51315" lon="4.70306">
        <ele>420</ele>
        <time>2015-07-27T15:44:24Z</time>
      </trkpt>
      <trkpt lat="45.51344" lon="4.70338">
        <ele>423</ele>
        <time>2015-07-27T15:44:29Z</time>
      </trkpt>
      <trkpt lat="45.51368" lon="4.70364">
        <ele>424</ele>
        <time>2015-07-27T15:44:34Z</time>
      </trkpt>
      <trkpt lat="45.5139" lon="4.70388">
        <ele>424</ele>
        <time>2015-07-27T15:44:39Z</time>
      </trkpt>
      <trkpt lat="45.51411" lon="4.70408">
        <ele>424</ele>
        <time>2015-07-27T15:44:44Z</time>
      </trkpt>
      <trkpt lat="45.51432" lon="4.70432">
        <ele>423</ele>
        <time>2015-07-27T15:44:49Z</time>
      </trkpt>
      <trkpt lat="45.51452" lon="4.7046">
        <ele>423</ele>
        <time>2015-07-27T15:44:54Z</time>
      </trkpt>
      <trkpt lat="45.51472" lon="4.7049">
        <ele>422</ele>
        <time>2015-07-27T15:44:59Z</time>
      </trkpt>
      <trkpt lat="45.51492" lon="4.70522">
        <ele>424</ele>
        <time>2015-07-27T15:45:04Z</time>
      </trkpt>
      <trkpt lat="45.51512" lon="4.70556">
        <ele>421</ele>
        <time>2015-07-27T15:45:09Z</time>
      </trkpt>
      <trkpt lat="45.51532" lon="4.70595">
        <ele>422</ele>
        <time>2015-07-27T15:45:14Z</time>
      </trkpt>
      <trkpt lat="45.51553" lon="4.70634">
        <ele>421</ele>
        <time>2015-07-27T15:45:19Z</time>
      </trkpt>
      <trkpt lat="45.51574" lon="4.70679">
        <ele>419</ele>
        <time>2015-07-27T15:45:24Z</time>
      </trkpt>
      <trkpt lat="45.51597" lon="4.70729">
        <ele>415</ele>
        <time>2015-07-27T15:45:29Z</time>
      </trkpt>
      <trkpt lat="45.51622" lon="4.70785">
        <ele>415</ele>
        <time>2015-07-27T15:45:34Z</time>
      </trkpt>
      <trkpt lat="45.51638" lon="4.70845">
        <ele>416</ele>
        <time>2015-07-27T15:45:39Z</time>
      </trkpt>
      <trkpt lat="45.51652" lon="4.70896">
        <ele>416</ele>
        <time>2015-07-27T15:45:44Z</time>
      </trkpt>
      <trkpt lat="45.51663" lon="4.70942">
        <ele>415</ele>
        <time>2015-07-27T15:45:49Z</time>
      </trkpt>
      <trkpt lat="45.51651" lon="4.70989">
        <ele>414</ele>
        <time>2015-07-27T15:45:54Z</time>
      </trkpt>
      <trkpt lat="45.51613" lon="4.71012">
        <ele>411</ele>
        <time>2015-07-27T15:45:59Z</time>
      </trkpt>
      <trkpt lat="45.51577" lon="4.71044">
        <ele>416</ele>
        <time>2015-07-27T15:46:04Z</time>
      </trkpt>
      <trkpt lat="45.51581" lon="4.71105">
        <ele>413</ele>
        <time>2015-07-27T15:46:09Z</time>
      </trkpt>
      <trkpt lat="45.51597" lon="4.71164">
        <ele>409</ele>
        <time>2015-07-27T15:46:14Z</time>
      </trkpt>
      <trkpt lat="45.51621" lon="4.71219">
        <ele>408</ele>
        <time>2015-07-27T15:46:19Z</time>
      </trkpt>
      <trkpt lat="45.51651" lon="4.71251">
        <ele>409</ele>
        <time>2015-07-27T15:46:24Z</time>
      </trkpt>
      <trkpt lat="45.51675" lon="4.71281">
        <ele>405</ele>
        <time>2015-07-27T15:46:29Z</time>
      </trkpt>
      <trkpt lat="45.51689" lon="4.7132">
        <ele>407</ele>
        <time>2015-07-27T15:46:34Z</time>
      </trkpt>
      <trkpt lat="45.5169" lon="4.71365">
        <ele>409</ele>
        <time>2015-07-27T15:46:39Z</time>
      </trkpt>
      <trkpt lat="45.51686" lon="4.71407">
        <ele>411</ele>
        <time>2015-07-27T15:46:44Z</time>
      </trkpt>
      <trkpt lat="45.51678" lon="4.7145">
        <ele>410</ele>
        <time>2015-07-27T15:46:49Z</time>
      </trkpt>
      <trkpt lat="45.51668" lon="4.71492">
        <ele>412</ele>
        <time>2015-07-27T15:46:54Z</time>
      </trkpt>
      <trkpt lat="45.51653" lon="4.71535">
        <ele>417</ele>
        <time>2015-07-27T15:46:59Z</time>
      </trkpt>
      <trkpt lat="45.51637" lon="4.71584">
        <ele>414</ele>
        <time>2015-07-27T15:47:04Z</time>
      </trkpt>
      <trkpt lat="45.51633" lon="4.7164">
        <ele>414</ele>
        <time>2015-07-27T15:47:09Z</time>
      </trkpt>
      <trkpt lat="45.51643" lon="4.71694">
        <ele>413</ele>
        <time>2015-07-27T15:47:14Z</time>
      </trkpt>
      <trkpt lat="45.5166" lon="4.71737">
        <ele>413</ele>
        <time>2015-07-27T15:47:19Z</time>
      </trkpt>
      <trkpt lat="45.51669" lon="4.71778">
        <ele>410</ele>
        <time>2015-07-27T15:47:24Z</time>
      </trkpt>
      <trkpt lat="45.51673" lon="4.71823">
        <ele>411</ele>
        <time>2015-07-27T15:47:29Z</time>
      </trkpt>
      <trkpt lat="45.51668" lon="4.71868">
        <ele>409</ele>
        <time>2015-07-27T15:47:34Z</time>
      </trkpt>
      <trkpt lat="45.51655" lon="4.71919">
        <ele>411</ele>
        <time>2015-07-27T15:47:39Z</time>
      </trkpt>
      <trkpt lat="45.51635" lon="4.71968">
        <ele>411</ele>
        <time>2015-07-27T15:47:44Z</time>
      </trkpt>
      <trkpt lat="45.51617" lon="4.72014">
        <ele>408</ele>
        <time>2015-07-27T15:47:49Z</time>
      </trkpt>
      <trkpt lat="45.51595" lon="4.72054">
        <ele>408</ele>
        <time>2015-07-27T15:47:54Z</time>
      </trkpt>
      <trkpt lat="45.51574" lon="4.72094">
        <ele>410</ele>
        <time>2015-07-27T15:47:59Z</time>
      </trkpt>
      <trkpt lat="45.51558" lon="4.72127">
        <ele>411</ele>
        <time>2015-07-27T15:48:03Z</time>
      </trkpt>
      <trkpt lat="45.51543" lon="4.72156">
        <ele>411</ele>
        <time>2015-07-27T15:48:08Z</time>
      </trkpt>
      <trkpt lat="45.51546" lon="4.72176">
        <ele>409</ele>
        <time>2015-07-27T15:48:13Z</time>
      </trkpt>
      <trkpt lat="45.5156" lon="4.72198">
        <ele>409</ele>
        <time>2015-07-27T15:48:18Z</time>
      </trkpt>
      <trkpt lat="45.51574" lon="4.72218">
        <ele>409</ele>
        <time>2015-07-27T15:48:23Z</time>
      </trkpt>
      <trkpt lat="45.5159" lon="4.72242">
        <ele>410</ele>
        <time>2015-07-27T15:48:28Z</time>
      </trkpt>
      <trkpt lat="45.51596" lon="4.72263">
        <ele>412</ele>
        <time>2015-07-27T15:48:32Z</time>
      </trkpt>
      <trkpt lat="45.51596" lon="4.72287">
        <ele>414</ele>
        <time>2015-07-27T15:48:37Z</time>
      </trkpt>
      <trkpt lat="45.51589" lon="4.72307">
        <ele>415</ele>
        <time>2015-07-27T15:48:42Z</time>
      </trkpt>
      <trkpt lat="45.51579" lon="4.72327">
        <ele>414</ele>
        <time>2015-07-27T15:48:47Z</time>
      </trkpt>
      <trkpt lat="45.5157" lon="4.72344">
        <ele>415</ele>
        <time>2015-07-27T15:48:52Z</time>
      </trkpt>
      <trkpt lat="45.5156" lon="4.72361">
        <ele>415</ele>
        <time>2015-07-27T15:48:57Z</time>
      </trkpt>
      <trkpt lat="45.51552" lon="4.72379">
        <ele>415</ele>
        <time>2015-07-27T15:49:02Z</time>
      </trkpt>
      <trkpt lat="45.51542" lon="4.72399">
        <ele>416</ele>
        <time>2015-07-27T15:49:07Z</time>
      </trkpt>
      <trkpt lat="45.51533" lon="4.72418">
        <ele>418</ele>
        <time>2015-07-27T15:49:12Z</time>
      </trkpt>
      <trkpt lat="45.51525" lon="4.72441">
        <ele>419</ele>
        <time>2015-07-27T15:49:17Z</time>
      </trkpt>
      <trkpt lat="45.5152" lon="4.72463">
        <ele>419</ele>
        <time>2015-07-27T15:49:22Z</time>
      </trkpt>
      <trkpt lat="45.51517" lon="4.72484">
        <ele>420</ele>
        <time>2015-07-27T15:49:27Z</time>
      </trkpt>
      <trkpt lat="45.51518" lon="4.72505">
        <ele>421</ele>
        <time>2015-07-27T15:49:32Z</time>
      </trkpt>
      <trkpt lat="45.51526" lon="4.72525">
        <ele>422</ele>
        <time>2015-07-27T15:49:37Z</time>
      </trkpt>
      <trkpt lat="45.51539" lon="4.7254">
        <ele>423</ele>
        <time>2015-07-27T15:49:42Z</time>
      </trkpt>
      <trkpt lat="45.51554" lon="4.72551">
        <ele>423</ele>
        <time>2015-07-27T15:49:47Z</time>
      </trkpt>
      <trkpt lat="45.51569" lon="4.72556">
        <ele>423</ele>
        <time>2015-07-27T15:49:52Z</time>
      </trkpt>
      <trkpt lat="45.51588" lon="4.72563">
        <ele>426</ele>
        <time>2015-07-27T15:49:57Z</time>
      </trkpt>
      <trkpt lat="45.51605" lon="4.72575">
        <ele>426</ele>
        <time>2015-07-27T15:50:02Z</time>
      </trkpt>
      <trkpt lat="45.51619" lon="4.72593">
        <ele>427</ele>
        <time>2015-07-27T15:50:07Z</time>
      </trkpt>
      <trkpt lat="45.51629" lon="4.72617">
        <ele>428</ele>
        <time>2015-07-27T15:50:12Z</time>
      </trkpt>
      <trkpt lat="45.51633" lon="4.72643">
        <ele>428</ele>
        <time>2015-07-27T15:50:17Z</time>
      </trkpt>
      <trkpt lat="45.51634" lon="4.72671">
        <ele>428</ele>
        <time>2015-07-27T15:50:22Z</time>
      </trkpt>
      <trkpt lat="45.51633" lon="4.72699">
        <ele>428</ele>
        <time>2015-07-27T15:50:27Z</time>
      </trkpt>
      <trkpt lat="45.51632" lon="4.72728">
        <ele>429</ele>
        <time>2015-07-27T15:50:32Z</time>
      </trkpt>
      <trkpt lat="45.51631" lon="4.72759">
        <ele>430</ele>
        <time>2015-07-27T15:50:37Z</time>
      </trkpt>
      <trkpt lat="45.51631" lon="4.72785">
        <ele>430</ele>
        <time>2015-07-27T15:50:41Z</time>
      </trkpt>
      <trkpt lat="45.51629" lon="4.72817">
        <ele>430</ele>
        <time>2015-07-27T15:50:46Z</time>
      </trkpt>
      <trkpt lat="45.51628" lon="4.72851">
        <ele>432</ele>
        <time>2015-07-27T15:50:51Z</time>
      </trkpt>
      <trkpt lat="45.51626" lon="4.72885">
        <ele>432</ele>
        <time>2015-07-27T15:50:56Z</time>
      </trkpt>
      <trkpt lat="45.51625" lon="4.72918">
        <ele>434</ele>
        <time>2015-07-27T15:51:01Z</time>
      </trkpt>
      <trkpt lat="45.51624" lon="4.72949">
        <ele>435</ele>
        <time>2015-07-27T15:51:06Z</time>
      </trkpt>
      <trkpt lat="45.51624" lon="4.72979">
        <ele>435</ele>
        <time>2015-07-27T15:51:11Z</time>
      </trkpt>
      <trkpt lat="45.51622" lon="4.73007">
        <ele>437</ele>
        <time>2015-07-27T15:51:16Z</time>
      </trkpt>
      <trkpt lat="45.51621" lon="4.73033">
        <ele>438</ele>
        <time>2015-07-27T15:51:21Z</time>
      </trkpt>
      <trkpt lat="45.51621" lon="4.73061">
        <ele>438</ele>
        <time>2015-07-27T15:51:26Z</time>
      </trkpt>
      <trkpt lat="45.5162" lon="4.73088">
        <ele>440</ele>
        <time>2015-07-27T15:51:31Z</time>
      </trkpt>
      <trkpt lat="45.51619" lon="4.73115">
        <ele>441</ele>
        <time>2015-07-27T15:51:36Z</time>
      </trkpt>
      <trkpt lat="45.51618" lon="4.73142">
        <ele>441</ele>
        <time>2015-07-27T15:51:41Z</time>
      </trkpt>
      <trkpt lat="45.51618" lon="4.73169">
        <ele>444</ele>
        <time>2015-07-27T15:51:46Z</time>
      </trkpt>
      <trkpt lat="45.51618" lon="4.73195">
        <ele>444</ele>
        <time>2015-07-27T15:51:51Z</time>
      </trkpt>
      <trkpt lat="45.51621" lon="4.73217">
        <ele>445</ele>
        <time>2015-07-27T15:51:56Z</time>
      </trkpt>
      <trkpt lat="45.51629" lon="4.73236">
        <ele>445</ele>
        <time>2015-07-27T15:52:01Z</time>
      </trkpt>
      <trkpt lat="45.51643" lon="4.73254">
        <ele>449</ele>
        <time>2015-07-27T15:52:07Z</time>
      </trkpt>
      <trkpt lat="45.51654" lon="4.73266">
        <ele>449</ele>
        <time>2015-07-27T15:52:11Z</time>
      </trkpt>
      <trkpt lat="45.51669" lon="4.73277">
        <ele>449</ele>
        <time>2015-07-27T15:52:16Z</time>
      </trkpt>
      <trkpt lat="45.5168" lon="4.73288">
        <ele>450</ele>
        <time>2015-07-27T15:52:21Z</time>
      </trkpt>
      <trkpt lat="45.51691" lon="4.73301">
        <ele>450</ele>
        <time>2015-07-27T15:52:26Z</time>
      </trkpt>
      <trkpt lat="45.51705" lon="4.73313">
        <ele>450</ele>
        <time>2015-07-27T15:52:31Z</time>
      </trkpt>
      <trkpt lat="45.51719" lon="4.73326">
        <ele>451</ele>
        <time>2015-07-27T15:52:36Z</time>
      </trkpt>
      <trkpt lat="45.51733" lon="4.73339">
        <ele>454</ele>
        <time>2015-07-27T15:52:41Z</time>
      </trkpt>
      <trkpt lat="45.51747" lon="4.73352">
        <ele>454</ele>
        <time>2015-07-27T15:52:46Z</time>
      </trkpt>
      <trkpt lat="45.51761" lon="4.73363">
        <ele>454</ele>
        <time>2015-07-27T15:52:51Z</time>
      </trkpt>
      <trkpt lat="45.51776" lon="4.73379">
        <ele>454</ele>
        <time>2015-07-27T15:52:56Z</time>
      </trkpt>
      <trkpt lat="45.5179" lon="4.73392">
        <ele>454</ele>
        <time>2015-07-27T15:53:01Z</time>
      </trkpt>
      <trkpt lat="45.51803" lon="4.73403">
        <ele>454</ele>
        <time>2015-07-27T15:53:06Z</time>
      </trkpt>
      <trkpt lat="45.51813" lon="4.73414">
        <ele>454</ele>
        <time>2015-07-27T15:53:10Z</time>
      </trkpt>
      <trkpt lat="45.51834" lon="4.73429">
        <ele>456</ele>
        <time>2015-07-27T15:53:17Z</time>
      </trkpt>
      <trkpt lat="45.51842" lon="4.73435">
        <ele>457</ele>
        <time>2015-07-27T15:53:20Z</time>
      </trkpt>
      <trkpt lat="45.51857" lon="4.73451">
        <ele>458</ele>
        <time>2015-07-27T15:53:26Z</time>
      </trkpt>
      <trkpt lat="45.51867" lon="4.7346">
        <ele>458</ele>
        <time>2015-07-27T15:53:30Z</time>
      </trkpt>
      <trkpt lat="45.51879" lon="4.73473">
        <ele>458</ele>
        <time>2015-07-27T15:53:35Z</time>
      </trkpt>
      <trkpt lat="45.5189" lon="4.73487">
        <ele>459</ele>
        <time>2015-07-27T15:53:40Z</time>
      </trkpt>
      <trkpt lat="45.51902" lon="4.73502">
        <ele>463</ele>
        <time>2015-07-27T15:53:45Z</time>
      </trkpt>
      <trkpt lat="45.51911" lon="4.7352">
        <ele>463</ele>
        <time>2015-07-27T15:53:50Z</time>
      </trkpt>
      <trkpt lat="45.51917" lon="4.7354">
        <ele>461</ele>
        <time>2015-07-27T15:53:55Z</time>
      </trkpt>
      <trkpt lat="45.51921" lon="4.73563">
        <ele>462</ele>
        <time>2015-07-27T15:54:00Z</time>
      </trkpt>
      <trkpt lat="45.5192" lon="4.73583">
        <ele>465</ele>
        <time>2015-07-27T15:54:05Z</time>
      </trkpt>
      <trkpt lat="45.51916" lon="4.73604">
        <ele>470</ele>
        <time>2015-07-27T15:54:10Z</time>
      </trkpt>
      <trkpt lat="45.51914" lon="4.73625">
        <ele>472</ele>
        <time>2015-07-27T15:54:15Z</time>
      </trkpt>
      <trkpt lat="45.51914" lon="4.73648">
        <ele>472</ele>
        <time>2015-07-27T15:54:20Z</time>
      </trkpt>
      <trkpt lat="45.51915" lon="4.73671">
        <ele>474</ele>
        <time>2015-07-27T15:54:25Z</time>
      </trkpt>
      <trkpt lat="45.51916" lon="4.73692">
        <ele>477</ele>
        <time>2015-07-27T15:54:30Z</time>
      </trkpt>
      <trkpt lat="45.51918" lon="4.73709">
        <ele>469</ele>
        <time>2015-07-27T15:54:34Z</time>
      </trkpt>
      <trkpt lat="45.51918" lon="4.73732">
        <ele>472</ele>
        <time>2015-07-27T15:54:39Z</time>
      </trkpt>
      <trkpt lat="45.51916" lon="4.73755">
        <ele>479</ele>
        <time>2015-07-27T15:54:44Z</time>
      </trkpt>
      <trkpt lat="45.51911" lon="4.7377">
        <ele>482</ele>
        <time>2015-07-27T15:54:48Z</time>
      </trkpt>
      <trkpt lat="45.51908" lon="4.73798">
        <ele>485</ele>
        <time>2015-07-27T15:54:54Z</time>
      </trkpt>
      <trkpt lat="45.51909" lon="4.73815">
        <ele>484</ele>
        <time>2015-07-27T15:54:58Z</time>
      </trkpt>
      <trkpt lat="45.51913" lon="4.73837">
        <ele>485</ele>
        <time>2015-07-27T15:55:03Z</time>
      </trkpt>
      <trkpt lat="45.51926" lon="4.73852">
        <ele>485</ele>
        <time>2015-07-27T15:55:09Z</time>
      </trkpt>
      <trkpt lat="45.51937" lon="4.73862">
        <ele>485</ele>
        <time>2015-07-27T15:55:13Z</time>
      </trkpt>
      <trkpt lat="45.51954" lon="4.73871">
        <ele>486</ele>
        <time>2015-07-27T15:55:18Z</time>
      </trkpt>
      <trkpt lat="45.51971" lon="4.73873">
        <ele>485</ele>
        <time>2015-07-27T15:55:23Z</time>
      </trkpt>
      <trkpt lat="45.51989" lon="4.73874">
        <ele>485</ele>
        <time>2015-07-27T15:55:28Z</time>
      </trkpt>
      <trkpt lat="45.52016" lon="4.73882">
        <ele>483</ele>
        <time>2015-07-27T15:55:35Z</time>
      </trkpt>
      <trkpt lat="45.5203" lon="4.73888">
        <ele>484</ele>
        <time>2015-07-27T15:55:39Z</time>
      </trkpt>
      <trkpt lat="45.52044" lon="4.7389">
        <ele>484</ele>
        <time>2015-07-27T15:55:43Z</time>
      </trkpt>
      <trkpt lat="45.5206" lon="4.73891">
        <ele>484</ele>
        <time>2015-07-27T15:55:48Z</time>
      </trkpt>
      <trkpt lat="45.5208" lon="4.73897">
        <ele>485</ele>
        <time>2015-07-27T15:55:53Z</time>
      </trkpt>
      <trkpt lat="45.52112" lon="4.73919">
        <ele>490</ele>
        <time>2015-07-27T15:56:01Z</time>
      </trkpt>
      <trkpt lat="45.52119" lon="4.73925">
        <ele>490</ele>
        <time>2015-07-27T15:56:03Z</time>
      </trkpt>
      <trkpt lat="45.52133" lon="4.73942">
        <ele>490</ele>
        <time>2015-07-27T15:56:08Z</time>
      </trkpt>
      <trkpt lat="45.52151" lon="4.73968">
        <ele>491</ele>
        <time>2015-07-27T15:56:16Z</time>
      </trkpt>
      <trkpt lat="45.52155" lon="4.73974">
        <ele>491</ele>
        <time>2015-07-27T15:56:18Z</time>
      </trkpt>
      <trkpt lat="45.52168" lon="4.74002">
        <ele>492</ele>
        <time>2015-07-27T15:56:26Z</time>
      </trkpt>
      <trkpt lat="45.52172" lon="4.7401">
        <ele>491</ele>
        <time>2015-07-27T15:56:28Z</time>
      </trkpt>
      <trkpt lat="45.52178" lon="4.74033">
        <ele>489</ele>
        <time>2015-07-27T15:56:33Z</time>
      </trkpt>
      <trkpt lat="45.52185" lon="4.74056">
        <ele>490</ele>
        <time>2015-07-27T15:56:38Z</time>
      </trkpt>
      <trkpt lat="45.52189" lon="4.74084">
        <ele>494</ele>
        <time>2015-07-27T15:56:44Z</time>
      </trkpt>
      <trkpt lat="45.52191" lon="4.74102">
        <ele>493</ele>
        <time>2015-07-27T15:56:48Z</time>
      </trkpt>
      <trkpt lat="45.52195" lon="4.74137">
        <ele>493</ele>
        <time>2015-07-27T15:56:55Z</time>
      </trkpt>
      <trkpt lat="45.52198" lon="4.74152">
        <ele>493</ele>
        <time>2015-07-27T15:56:58Z</time>
      </trkpt>
      <trkpt lat="45.52201" lon="4.7417">
        <ele>496</ele>
        <time>2015-07-27T15:57:02Z</time>
      </trkpt>
      <trkpt lat="45.52205" lon="4.74193">
        <ele>495</ele>
        <time>2015-07-27T15:57:07Z</time>
      </trkpt>
      <trkpt lat="45.5221" lon="4.74223">
        <ele>496</ele>
        <time>2015-07-27T15:57:13Z</time>
      </trkpt>
      <trkpt lat="45.52216" lon="4.74266">
        <ele>498</ele>
        <time>2015-07-27T15:57:22Z</time>
      </trkpt>
      <trkpt lat="45.52217" lon="4.74272">
        <ele>498</ele>
        <time>2015-07-27T15:57:23Z</time>
      </trkpt>
      <trkpt lat="45.52222" lon="4.74299">
        <ele>499</ele>
        <time>2015-07-27T15:57:28Z</time>
      </trkpt>
      <trkpt lat="45.52227" lon="4.74325">
        <ele>499</ele>
        <time>2015-07-27T15:57:33Z</time>
      </trkpt>
      <trkpt lat="45.52231" lon="4.74344">
        <ele>499</ele>
        <time>2015-07-27T15:57:38Z</time>
      </trkpt>
      <trkpt lat="45.5224" lon="4.74352">
        <ele>499</ele>
        <time>2015-07-27T15:57:43Z</time>
      </trkpt>
      <trkpt lat="45.52256" lon="4.74354">
        <ele>502</ele>
        <time>2015-07-27T15:57:48Z</time>
      </trkpt>
      <trkpt lat="45.5228" lon="4.74352">
        <ele>503</ele>
        <time>2015-07-27T15:57:53Z</time>
      </trkpt>
      <trkpt lat="45.52303" lon="4.7434">
        <ele>504</ele>
        <time>2015-07-27T15:57:58Z</time>
      </trkpt>
      <trkpt lat="45.5233" lon="4.74315">
        <ele>498</ele>
        <time>2015-07-27T15:58:04Z</time>
      </trkpt>
      <trkpt lat="45.52348" lon="4.74295">
        <ele>498</ele>
        <time>2015-07-27T15:58:08Z</time>
      </trkpt>
      <trkpt lat="45.52374" lon="4.74268">
        <ele>497</ele>
        <time>2015-07-27T15:58:13Z</time>
      </trkpt>
      <trkpt lat="45.52404" lon="4.74245">
        <ele>489</ele>
        <time>2015-07-27T15:58:18Z</time>
      </trkpt>
      <trkpt lat="45.52439" lon="4.74222">
        <ele>488</ele>
        <time>2015-07-27T15:58:23Z</time>
      </trkpt>
      <trkpt lat="45.52473" lon="4.7421">
        <ele>488</ele>
        <time>2015-07-27T15:58:28Z</time>
      </trkpt>
      <trkpt lat="45.52503" lon="4.74213">
        <ele>490</ele>
        <time>2015-07-27T15:58:32Z</time>
      </trkpt>
      <trkpt lat="45.52546" lon="4.74213">
        <ele>490</ele>
        <time>2015-07-27T15:58:38Z</time>
      </trkpt>
      <trkpt lat="45.52576" lon="4.74214">
        <ele>490</ele>
        <time>2015-07-27T15:58:42Z</time>
      </trkpt>
      <trkpt lat="45.52613" lon="4.7422">
        <ele>490</ele>
        <time>2015-07-27T15:58:47Z</time>
      </trkpt>
      <trkpt lat="45.52679" lon="4.74206">
        <ele>490</ele>
        <time>2015-07-27T15:58:55Z</time>
      </trkpt>
      <trkpt lat="45.52695" lon="4.74196">
        <ele>489</ele>
        <time>2015-07-27T15:58:57Z</time>
      </trkpt>
      <trkpt lat="45.52736" lon="4.74167">
        <ele>488</ele>
        <time>2015-07-27T15:59:02Z</time>
      </trkpt>
      <trkpt lat="45.52812" lon="4.74095">
        <ele>475</ele>
        <time>2015-07-27T15:59:11Z</time>
      </trkpt>
      <trkpt lat="45.5282" lon="4.74088">
        <ele>474</ele>
        <time>2015-07-27T15:59:12Z</time>
      </trkpt>
      <trkpt lat="45.52869" lon="4.74085">
        <ele>472</ele>
        <time>2015-07-27T15:59:17Z</time>
      </trkpt>
      <trkpt lat="45.52903" lon="4.7412">
        <ele>472</ele>
        <time>2015-07-27T15:59:21Z</time>
      </trkpt>
      <trkpt lat="45.52938" lon="4.74175">
        <ele>472</ele>
        <time>2015-07-27T15:59:26Z</time>
      </trkpt>
      <trkpt lat="45.52982" lon="4.74197">
        <ele>468</ele>
        <time>2015-07-27T15:59:31Z</time>
      </trkpt>
      <trkpt lat="45.53036" lon="4.74229">
        <ele>459</ele>
        <time>2015-07-27T15:59:37Z</time>
      </trkpt>
      <trkpt lat="45.53062" lon="4.74269">
        <ele>465</ele>
        <time>2015-07-27T15:59:41Z</time>
      </trkpt>
      <trkpt lat="45.53102" lon="4.74309">
        <ele>459</ele>
        <time>2015-07-27T15:59:46Z</time>
      </trkpt>
      <trkpt lat="45.53139" lon="4.74339">
        <ele>464</ele>
        <time>2015-07-27T15:59:51Z</time>
      </trkpt>
      <trkpt lat="45.53177" lon="4.74355">
        <ele>462</ele>
        <time>2015-07-27T15:59:56Z</time>
      </trkpt>
      <trkpt lat="45.53236" lon="4.74332">
        <ele>458</ele>
        <time>2015-07-27T16:00:04Z</time>
      </trkpt>
      <trkpt lat="45.5325" lon="4.74316">
        <ele>459</ele>
        <time>2015-07-27T16:00:06Z</time>
      </trkpt>
      <trkpt lat="45.53286" lon="4.74276">
        <ele>456</ele>
        <time>2015-07-27T16:00:11Z</time>
      </trkpt>
      <trkpt lat="45.53351" lon="4.74219">
        <ele>447</ele>
        <time>2015-07-27T16:00:19Z</time>
      </trkpt>
      <trkpt lat="45.53369" lon="4.74219">
        <ele>446</ele>
        <time>2015-07-27T16:00:21Z</time>
      </trkpt>
      <trkpt lat="45.53415" lon="4.74236">
        <ele>446</ele>
        <time>2015-07-27T16:00:26Z</time>
      </trkpt>
      <trkpt lat="45.53459" lon="4.74267">
        <ele>445</ele>
        <time>2015-07-27T16:00:31Z</time>
      </trkpt>
      <trkpt lat="45.53495" lon="4.74318">
        <ele>445</ele>
        <time>2015-07-27T16:00:36Z</time>
      </trkpt>
      <trkpt lat="45.53483" lon="4.74426">
        <ele>447</ele>
        <time>2015-07-27T16:00:44Z</time>
      </trkpt>
      <trkpt lat="45.53481" lon="4.74456">
        <ele>448</ele>
        <time>2015-07-27T16:00:46Z</time>
      </trkpt>
      <trkpt lat="45.53517" lon="4.74494">
        <ele>439</ele>
        <time>2015-07-27T16:00:51Z</time>
      </trkpt>
      <trkpt lat="45.5356" lon="4.74471">
        <ele>437</ele>
        <time>2015-07-27T16:00:56Z</time>
      </trkpt>
      <trkpt lat="45.53604" lon="4.74442">
        <ele>433</ele>
        <time>2015-07-27T16:01:01Z</time>
      </trkpt>
      <trkpt lat="45.53658" lon="4.7441">
        <ele>431</ele>
        <time>2015-07-27T16:01:07Z</time>
      </trkpt>
      <trkpt lat="45.53703" lon="4.74387">
        <ele>427</ele>
        <time>2015-07-27T16:01:12Z</time>
      </trkpt>
      <trkpt lat="45.5376" lon="4.74363">
        <ele>423</ele>
        <time>2015-07-27T16:01:18Z</time>
      </trkpt>
      <trkpt lat="45.53798" lon="4.74349">
        <ele>422</ele>
        <time>2015-07-27T16:01:22Z</time>
      </trkpt>
      <trkpt lat="45.53843" lon="4.74341">
        <ele>421</ele>
        <time>2015-07-27T16:01:27Z</time>
      </trkpt>
      <trkpt lat="45.53885" lon="4.74336">
        <ele>421</ele>
        <time>2015-07-27T16:01:32Z</time>
      </trkpt>
      <trkpt lat="45.53916" lon="4.74336">
        <ele>423</ele>
        <time>2015-07-27T16:01:36Z</time>
      </trkpt>
      <trkpt lat="45.53954" lon="4.74344">
        <ele>423</ele>
        <time>2015-07-27T16:01:41Z</time>
      </trkpt>
      <trkpt lat="45.53987" lon="4.74354">
        <ele>423</ele>
        <time>2015-07-27T16:01:46Z</time>
      </trkpt>
      <trkpt lat="45.54018" lon="4.74361">
        <ele>425</ele>
        <time>2015-07-27T16:01:51Z</time>
      </trkpt>
      <trkpt lat="45.54049" lon="4.74367">
        <ele>425</ele>
        <time>2015-07-27T16:01:56Z</time>
      </trkpt>
      <trkpt lat="45.5408" lon="4.74372">
        <ele>426</ele>
        <time>2015-07-27T16:02:01Z</time>
      </trkpt>
      <trkpt lat="45.54109" lon="4.74357">
        <ele>428</ele>
        <time>2015-07-27T16:02:07Z</time>
      </trkpt>
      <trkpt lat="45.54123" lon="4.74315">
        <ele>427</ele>
        <time>2015-07-27T16:02:12Z</time>
      </trkpt>
      <trkpt lat="45.54132" lon="4.74262">
        <ele>427</ele>
        <time>2015-07-27T16:02:17Z</time>
      </trkpt>
      <trkpt lat="45.54123" lon="4.74212">
        <ele>427</ele>
        <time>2015-07-27T16:02:22Z</time>
      </trkpt>
      <trkpt lat="45.54108" lon="4.7417">
        <ele>426</ele>
        <time>2015-07-27T16:02:27Z</time>
      </trkpt>
      <trkpt lat="45.54114" lon="4.74124">
        <ele>425</ele>
        <time>2015-07-27T16:02:32Z</time>
      </trkpt>
      <trkpt lat="45.54132" lon="4.7408">
        <ele>425</ele>
        <time>2015-07-27T16:02:37Z</time>
      </trkpt>
      <trkpt lat="45.54155" lon="4.74045">
        <ele>425</ele>
        <time>2015-07-27T16:02:42Z</time>
      </trkpt>
      <trkpt lat="45.54177" lon="4.74017">
        <ele>429</ele>
        <time>2015-07-27T16:02:47Z</time>
      </trkpt>
      <trkpt lat="45.54195" lon="4.73996">
        <ele>430</ele>
        <time>2015-07-27T16:02:52Z</time>
      </trkpt>
      <trkpt lat="45.542" lon="4.7397">
        <ele>431</ele>
        <time>2015-07-27T16:02:57Z</time>
      </trkpt>
      <trkpt lat="45.54195" lon="4.73952">
        <ele>432</ele>
        <time>2015-07-27T16:03:02Z</time>
      </trkpt>
      <trkpt lat="45.5418" lon="4.73945">
        <ele>432</ele>
        <time>2015-07-27T16:03:07Z</time>
      </trkpt>
      <trkpt lat="45.54164" lon="4.73938">
        <ele>430</ele>
        <time>2015-07-27T16:03:12Z</time>
      </trkpt>
      <trkpt lat="45.54148" lon="4.73931">
        <ele>430</ele>
        <time>2015-07-27T16:03:17Z</time>
      </trkpt>
      <trkpt lat="45.54136" lon="4.73921">
        <ele>430</ele>
        <time>2015-07-27T16:03:22Z</time>
      </trkpt>
      <trkpt lat="45.54125" lon="4.7391">
        <ele>434</ele>
        <time>2015-07-27T16:03:27Z</time>
      </trkpt>
      <trkpt lat="45.54114" lon="4.73897">
        <ele>434</ele>
        <time>2015-07-27T16:03:32Z</time>
      </trkpt>
      <trkpt lat="45.54104" lon="4.73883">
        <ele>435</ele>
        <time>2015-07-27T16:03:37Z</time>
      </trkpt>
      <trkpt lat="45.54096" lon="4.73864">
        <ele>435</ele>
        <time>2015-07-27T16:03:42Z</time>
      </trkpt>
      <trkpt lat="45.54093" lon="4.73844">
        <ele>436</ele>
        <time>2015-07-27T16:03:47Z</time>
      </trkpt>
      <trkpt lat="45.54087" lon="4.73807">
        <ele>439</ele>
        <time>2015-07-27T16:03:56Z</time>
      </trkpt>
      <trkpt lat="45.54086" lon="4.73802">
        <ele>439</ele>
        <time>2015-07-27T16:03:57Z</time>
      </trkpt>
      <trkpt lat="45.5408" lon="4.73778">
        <ele>436</ele>
        <time>2015-07-27T16:04:02Z</time>
      </trkpt>
      <trkpt lat="45.54065" lon="4.73753">
        <ele>436</ele>
        <time>2015-07-27T16:04:07Z</time>
      </trkpt>
      <trkpt lat="45.54045" lon="4.73732">
        <ele>437</ele>
        <time>2015-07-27T16:04:12Z</time>
      </trkpt>
      <trkpt lat="45.5403" lon="4.737">
        <ele>436</ele>
        <time>2015-07-27T16:04:17Z</time>
      </trkpt>
      <trkpt lat="45.54028" lon="4.73664">
        <ele>436</ele>
        <time>2015-07-27T16:04:22Z</time>
      </trkpt>
      <trkpt lat="45.54035" lon="4.73629">
        <ele>436</ele>
        <time>2015-07-27T16:04:27Z</time>
      </trkpt>
      <trkpt lat="45.54053" lon="4.73595">
        <ele>437</ele>
        <time>2015-07-27T16:04:32Z</time>
      </trkpt>
      <trkpt lat="45.54072" lon="4.73562">
        <ele>436</ele>
        <time>2015-07-27T16:04:37Z</time>
      </trkpt>
      <trkpt lat="45.54092" lon="4.73526">
        <ele>441</ele>
        <time>2015-07-27T16:04:42Z</time>
      </trkpt>
      <trkpt lat="45.54107" lon="4.73482">
        <ele>440</ele>
        <time>2015-07-27T16:04:47Z</time>
      </trkpt>
      <trkpt lat="45.54116" lon="4.73436">
        <ele>440</ele>
        <time>2015-07-27T16:04:52Z</time>
      </trkpt>
      <trkpt lat="45.54109" lon="4.73401">
        <ele>440</ele>
        <time>2015-07-27T16:04:56Z</time>
      </trkpt>
      <trkpt lat="45.54082" lon="4.73377">
        <ele>436</ele>
        <time>2015-07-27T16:05:01Z</time>
      </trkpt>
      <trkpt lat="45.54057" lon="4.73357">
        <ele>436</ele>
        <time>2015-07-27T16:05:06Z</time>
      </trkpt>
      <trkpt lat="45.5405" lon="4.73315">
        <ele>437</ele>
        <time>2015-07-27T16:05:12Z</time>
      </trkpt>
      <trkpt lat="45.54056" lon="4.73283">
        <ele>438</ele>
        <time>2015-07-27T16:05:17Z</time>
      </trkpt>
      <trkpt lat="45.54065" lon="4.73254">
        <ele>439</ele>
        <time>2015-07-27T16:05:21Z</time>
      </trkpt>
      <trkpt lat="45.54075" lon="4.73217">
        <ele>437</ele>
        <time>2015-07-27T16:05:26Z</time>
      </trkpt>
      <trkpt lat="45.54092" lon="4.73184">
        <ele>439</ele>
        <time>2015-07-27T16:05:31Z</time>
      </trkpt>
      <trkpt lat="45.5413" lon="4.73117">
        <ele>432</ele>
        <time>2015-07-27T16:05:39Z</time>
      </trkpt>
      <trkpt lat="45.5414" lon="4.73099">
        <ele>432</ele>
        <time>2015-07-27T16:05:41Z</time>
      </trkpt>
      <trkpt lat="45.54168" lon="4.73052">
        <ele>429</ele>
        <time>2015-07-27T16:05:46Z</time>
      </trkpt>
      <trkpt lat="45.54194" lon="4.73004">
        <ele>428</ele>
        <time>2015-07-27T16:05:51Z</time>
      </trkpt>
      <trkpt lat="45.54221" lon="4.72961">
        <ele>427</ele>
        <time>2015-07-27T16:05:56Z</time>
      </trkpt>
      <trkpt lat="45.54244" lon="4.72924">
        <ele>428</ele>
        <time>2015-07-27T16:06:01Z</time>
      </trkpt>
      <trkpt lat="45.54262" lon="4.72895">
        <ele>427</ele>
        <time>2015-07-27T16:06:05Z</time>
      </trkpt>
      <trkpt lat="45.54286" lon="4.72862">
        <ele>426</ele>
        <time>2015-07-27T16:06:10Z</time>
      </trkpt>
      <trkpt lat="45.54308" lon="4.72831">
        <ele>427</ele>
        <time>2015-07-27T16:06:15Z</time>
      </trkpt>
      <trkpt lat="45.54328" lon="4.72793">
        <ele>427</ele>
        <time>2015-07-27T16:06:20Z</time>
      </trkpt>
      <trkpt lat="45.54343" lon="4.7275">
        <ele>424</ele>
        <time>2015-07-27T16:06:25Z</time>
      </trkpt>
      <trkpt lat="45.5436" lon="4.72702">
        <ele>422</ele>
        <time>2015-07-27T16:06:30Z</time>
      </trkpt>
      <trkpt lat="45.54378" lon="4.72658">
        <ele>420</ele>
        <time>2015-07-27T16:06:35Z</time>
      </trkpt>
      <trkpt lat="45.54399" lon="4.72621">
        <ele>420</ele>
        <time>2015-07-27T16:06:40Z</time>
      </trkpt>
      <trkpt lat="45.54422" lon="4.72581">
        <ele>418</ele>
        <time>2015-07-27T16:06:45Z</time>
      </trkpt>
      <trkpt lat="45.54443" lon="4.72543">
        <ele>416</ele>
        <time>2015-07-27T16:06:50Z</time>
      </trkpt>
      <trkpt lat="45.54466" lon="4.72507">
        <ele>415</ele>
        <time>2015-07-27T16:06:55Z</time>
      </trkpt>
      <trkpt lat="45.5449" lon="4.72469">
        <ele>415</ele>
        <time>2015-07-27T16:07:00Z</time>
      </trkpt>
      <trkpt lat="45.54518" lon="4.72434">
        <ele>413</ele>
        <time>2015-07-27T16:07:05Z</time>
      </trkpt>
      <trkpt lat="45.54546" lon="4.72404">
        <ele>413</ele>
        <time>2015-07-27T16:07:10Z</time>
      </trkpt>
      <trkpt lat="45.54574" lon="4.72377">
        <ele>413</ele>
        <time>2015-07-27T16:07:15Z</time>
      </trkpt>
      <trkpt lat="45.54606" lon="4.7235">
        <ele>410</ele>
        <time>2015-07-27T16:07:20Z</time>
      </trkpt>
      <trkpt lat="45.54643" lon="4.72321">
        <ele>410</ele>
        <time>2015-07-27T16:07:25Z</time>
      </trkpt>
      <trkpt lat="45.54681" lon="4.72289">
        <ele>404</ele>
        <time>2015-07-27T16:07:30Z</time>
      </trkpt>
      <trkpt lat="45.5472" lon="4.72251">
        <ele>403</ele>
        <time>2015-07-27T16:07:35Z</time>
      </trkpt>
      <trkpt lat="45.54763" lon="4.7221">
        <ele>396</ele>
        <time>2015-07-27T16:07:40Z</time>
      </trkpt>
      <trkpt lat="45.54808" lon="4.7217">
        <ele>392</ele>
        <time>2015-07-27T16:07:45Z</time>
      </trkpt>
      <trkpt lat="45.54857" lon="4.72128">
        <ele>385</ele>
        <time>2015-07-27T16:07:50Z</time>
      </trkpt>
      <trkpt lat="45.54906" lon="4.72086">
        <ele>382</ele>
        <time>2015-07-27T16:07:55Z</time>
      </trkpt>
      <trkpt lat="45.54952" lon="4.72041">
        <ele>378</ele>
        <time>2015-07-27T16:08:00Z</time>
      </trkpt>
      <trkpt lat="45.54991" lon="4.71992">
        <ele>376</ele>
        <time>2015-07-27T16:08:05Z</time>
      </trkpt>
      <trkpt lat="45.55015" lon="4.71958">
        <ele>374</ele>
        <time>2015-07-27T16:08:10Z</time>
      </trkpt>
      <trkpt lat="45.55023" lon="4.71947">
        <ele>374</ele>
        <time>2015-07-27T16:08:15Z</time>
      </trkpt>
      <trkpt lat="45.55035" lon="4.71938">
        <ele>374</ele>
        <time>2015-07-27T16:08:20Z</time>
      </trkpt>
      <trkpt lat="45.55051" lon="4.71926">
        <ele>374</ele>
        <time>2015-07-27T16:08:25Z</time>
      </trkpt>
      <trkpt lat="45.55076" lon="4.71918">
        <ele>373</ele>
        <time>2015-07-27T16:08:30Z</time>
      </trkpt>
      <trkpt lat="45.55105" lon="4.71916">
        <ele>371</ele>
        <time>2015-07-27T16:08:35Z</time>
      </trkpt>
      <trkpt lat="45.55142" lon="4.71913">
        <ele>370</ele>
        <time>2015-07-27T16:08:41Z</time>
      </trkpt>
      <trkpt lat="45.55167" lon="4.71915">
        <ele>370</ele>
        <time>2015-07-27T16:08:45Z</time>
      </trkpt>
      <trkpt lat="45.552" lon="4.71918">
        <ele>368</ele>
        <time>2015-07-27T16:08:50Z</time>
      </trkpt>
      <trkpt lat="45.55235" lon="4.71914">
        <ele>368</ele>
        <time>2015-07-27T16:08:55Z</time>
      </trkpt>
      <trkpt lat="45.55272" lon="4.71911">
        <ele>366</ele>
        <time>2015-07-27T16:09:00Z</time>
      </trkpt>
      <trkpt lat="45.5531" lon="4.71906">
        <ele>364</ele>
        <time>2015-07-27T16:09:05Z</time>
      </trkpt>
      <trkpt lat="45.55343" lon="4.71896">
        <ele>360</ele>
        <time>2015-07-27T16:09:09Z</time>
      </trkpt>
      <trkpt lat="45.55386" lon="4.71877">
        <ele>357</ele>
        <time>2015-07-27T16:09:14Z</time>
      </trkpt>
      <trkpt lat="45.55427" lon="4.71851">
        <ele>352</ele>
        <time>2015-07-27T16:09:19Z</time>
      </trkpt>
      <trkpt lat="45.55443" lon="4.71815">
        <ele>351</ele>
        <time>2015-07-27T16:09:24Z</time>
      </trkpt>
      <trkpt lat="45.55431" lon="4.71787">
        <ele>351</ele>
        <time>2015-07-27T16:09:29Z</time>
      </trkpt>
      <trkpt lat="45.55421" lon="4.71767">
        <ele>352</ele>
        <time>2015-07-27T16:09:34Z</time>
      </trkpt>
      <trkpt lat="45.55428" lon="4.71741">
        <ele>352</ele>
        <time>2015-07-27T16:09:41Z</time>
      </trkpt>
      <trkpt lat="45.55425" lon="4.7174">
        <ele>352</ele>
        <time>2015-07-27T16:09:44Z</time>
      </trkpt>
      <trkpt lat="45.55423" lon="4.7174">
        <ele>352</ele>
        <time>2015-07-27T16:09:49Z</time>
      </trkpt>
      <trkpt lat="45.55421" lon="4.71741">
        <ele>352</ele>
        <time>2015-07-27T16:09:54Z</time>
      </trkpt>
      <trkpt lat="45.55421" lon="4.71742">
        <ele>352</ele>
        <time>2015-07-27T16:09:59Z</time>
      </trkpt>
      <trkpt lat="45.55421" lon="4.71741">
        <ele>352</ele>
        <time>2015-07-27T16:10:02Z</time>
      </trkpt>
      <trkpt lat="45.55421" lon="4.71741">
        <ele>352</ele>
        <time>2015-07-27T16:10:05Z</time>
      </trkpt>
      <trkpt lat="45.55421" lon="4.7174">
        <ele>352</ele>
        <time>2015-07-27T16:10:08Z</time>
      </trkpt>
      <trkpt lat="45.55421" lon="4.71739">
        <ele>352</ele>
        <time>2015-07-27T16:10:11Z</time>
      </trkpt>
      <trkpt lat="45.55421" lon="4.7174">
        <ele>352</ele>
        <time>2015-07-27T16:10:14Z</time>
      </trkpt>
      <trkpt lat="45.55421" lon="4.7174">
        <ele>352</ele>
        <time>2015-07-27T16:10:17Z</time>
      </trkpt>
      <trkpt lat="45.55421" lon="4.71739">
        <ele>352</ele>
        <time>2015-07-27T16:10:20Z</time>
      </trkpt>
      <trkpt lat="45.55421" lon="4.71739">
        <ele>352</ele>
        <time>2015-07-27T16:10:23Z</time>
      </trkpt>
      <trkpt lat="45.55421" lon="4.71739">
        <ele>352</ele>
        <time>2015-07-27T16:10:26Z</time>
      </trkpt>
      <trkpt lat="45.55421" lon="4.71739">
        <ele>352</ele>
        <time>2015-07-27T16:10:29Z</time>
      </trkpt>
      <trkpt lat="45.55421" lon="4.71739">
        <ele>352</ele>
        <time>2015-07-27T16:10:32Z</time>
      </trkpt>
      <trkpt lat="45.55421" lon="4.71738">
        <ele>352</ele>
        <time>2015-07-27T16:10:35Z</time>
      </trkpt>
      <trkpt lat="45.55421" lon="4.71738">
        <ele>352</ele>
        <time>2015-07-27T16:10:38Z</time>
      </trkpt>
    </trkseg>
  </trk>
</gpx>